Observation data for Brownfield on 02/23/2021      Previous  Date  Next       Current Mesonet Observations  Soil Data  Daily Summary Page  Observations in Plain Language
KBWS 230600Z 30008KT 06/M08 A3009 RMK A01 T00581082  RH  036%=      5-min Rain = 0
KBWS 230601Z 29008KT 06/M08 A3009 RMK A01 T00571081  RH  036%=      5-min Rain = 0
KBWS 230602Z 29009KT 06/M08 A3009 RMK A01 T00571080  RH  036%=      5-min Rain = 0
KBWS 230603Z 29009KT 06/M08 A3009 RMK A01 T00571079  RH  037%=      5-min Rain = 0
KBWS 230604Z 29008KT 06/M08 A3009 RMK A01 T00561079  RH  037%=      5-min Rain = 0
KBWS 230605Z 30008KT 06/M08 A3009 RMK A01 T00561079  RH  037%=      5-min Rain = 0
KBWS 230606Z 31008KT 06/M08 A3009 RMK A01 T00551079  RH  037%=      5-min Rain = 0
KBWS 230607Z 31008KT 06/M08 A3009 RMK A01 T00551079  RH  038%=      5-min Rain = 0
KBWS 230608Z 30008KT 05/M08 A3009 RMK A01 T00541079  RH  038%=      5-min Rain = 0
KBWS 230609Z 31008KT 05/M08 A3009 RMK A01 T00531078  RH  038%=      5-min Rain = 0
KBWS 230610Z 31008KT 05/M08 A3009 RMK A01 T00531078  RH  038%=      5-min Rain = 0
KBWS 230611Z 30008KT 05/M08 A3009 RMK A01 T00521079  RH  038%=      5-min Rain = 0
KBWS 230612Z 31008KT 05/M08 A3009 RMK A01 T00521079  RH  038%=      5-min Rain = 0
KBWS 230613Z 30009KT 05/M08 A3009 RMK A01 T00521079  RH  038%=      5-min Rain = 0
KBWS 230614Z 30009KT 05/M08 A3008 RMK A01 T00531080  RH  038%=      5-min Rain = 0
KBWS 230615Z 30009KT 05/M08 A3008 RMK A01 T00541079  RH  038%=      5-min Rain = 0
KBWS 230616Z 30009KT 06/M08 A3008 RMK A01 T00551080  RH  037%=      5-min Rain = 0
KBWS 230617Z 29009KT 06/M08 A3008 RMK A01 T00571080  RH  037%=      5-min Rain = 0
KBWS 230618Z 30009KT 06/M08 A3008 RMK A01 T00581080  RH  037%=      5-min Rain = 0
KBWS 230619Z 30009KT 06/M08 A3008 RMK A01 T00581080  RH  036%=      5-min Rain = 0
KBWS 230620Z 30010KT 06/M08 A3008 RMK A01 T00581080  RH  036%=      5-min Rain = 0
KBWS 230621Z 30010KT 06/M08 A3008 RMK A01 T00571080  RH  037%=      5-min Rain = 0
KBWS 230622Z 30010KT 06/M08 A3008 RMK A01 T00591079  RH  036%=      5-min Rain = 0
KBWS 230623Z 30010KT 06/M08 A3008 RMK A01 T00601080  RH  036%=      5-min Rain = 0
KBWS 230624Z 30010KT 06/M08 A3008 RMK A01 T00601079  RH  036%=      5-min Rain = 0
KBWS 230625Z 30010KT 06/M08 A3008 RMK A01 T00611079  RH  036%=      5-min Rain = 0
KBWS 230626Z 30010KT 06/M08 A3008 RMK A01 T00611079  RH  036%=      5-min Rain = 0
KBWS 230627Z 29010KT 06/M08 A3008 RMK A01 T00621079  RH  036%=      5-min Rain = 0
KBWS 230628Z 29010KT 06/M08 A3008 RMK A01 T00631079  RH  036%=      5-min Rain = 0
KBWS 230629Z 30011KT 06/M08 A3008 RMK A01 T00621079  RH  036%=      5-min Rain = 0
KBWS 230630Z 30011KT 06/M08 A3008 RMK A01 T00631079  RH  036%=      5-min Rain = 0
KBWS 230631Z 30010KT 06/M08 A3008 RMK A01 T00621079  RH  036%=      5-min Rain = 0
KBWS 230632Z 30010KT 06/M08 A3008 RMK A01 T00611079  RH  036%=      5-min Rain = 0
KBWS 230633Z 30010KT 06/M08 A3008 RMK A01 T00601078  RH  036%=      5-min Rain = 0
KBWS 230634Z 30010KT 06/M08 A3008 RMK A01 T00601079  RH  036%=      5-min Rain = 0
KBWS 230635Z 30010KT 06/M08 A3008 RMK A01 T00601079  RH  036%=      5-min Rain = 0
KBWS 230636Z 30009KT 06/M08 A3008 RMK A01 T00601078  RH  036%=      5-min Rain = 0
KBWS 230637Z 30009KT 06/M08 A3008 RMK A01 T00601078  RH  036%=      5-min Rain = 0
KBWS 230638Z 30010KT 06/M08 A3008 RMK A01 T00591078  RH  037%=      5-min Rain = 0
KBWS 230639Z 31010KT 06/M08 A3008 RMK A01 T00581078  RH  037%=      5-min Rain = 0
KBWS 230640Z 30008KT 06/M08 A3008 RMK A01 T00581078  RH  037%=      5-min Rain = 0
KBWS 230641Z 30008KT 06/M08 A3008 RMK A01 T00571078  RH  037%=      5-min Rain = 0
KBWS 230642Z 30009KT 06/M08 A3008 RMK A01 T00561078  RH  037%=      5-min Rain = 0
KBWS 230643Z 30009KT 06/M08 A3008 RMK A01 T00551078  RH  038%=      5-min Rain = 0
KBWS 230644Z 30010KT 06/M08 A3008 RMK A01 T00551077  RH  038%=      5-min Rain = 0
KBWS 230645Z 31011KT 06/M08 A3008 RMK A01 T00551077  RH  038%=      5-min Rain = 0
KBWS 230646Z 30010KT 06/M08 A3008 RMK A01 T00561077  RH  038%=      5-min Rain = 0
KBWS 230647Z 30010KT 06/M08 A3008 RMK A01 T00571077  RH  038%=      5-min Rain = 0
KBWS 230648Z 30010KT 06/M08 A3008 RMK A01 T00571077  RH  038%=      5-min Rain = 0
KBWS 230649Z 31009KT 06/M08 A3008 RMK A01 T00551077  RH  038%=      5-min Rain = 0
KBWS 230650Z 31010KT 06/M08 A3008 RMK A01 T00551077  RH  038%=      5-min Rain = 0
KBWS 230651Z 30009KT 05/M08 A3008 RMK A01 T00531077  RH  038%=      5-min Rain = 0
KBWS 230652Z 30010KT 05/M08 A3008 RMK A01 T00531077  RH  039%=      5-min Rain = 0
KBWS 230653Z 30010KT 05/M08 A3008 RMK A01 T00531076  RH  039%=      5-min Rain = 0
KBWS 230654Z 30011KT 05/M08 A3008 RMK A01 T00541075  RH  039%=      5-min Rain = 0
KBWS 230655Z 31011KT 06/M08 A3008 RMK A01 T00551075  RH  039%=      5-min Rain = 0
KBWS 230656Z 31011KT 06/M08 A3008 RMK A01 T00561075  RH  038%=      5-min Rain = 0
KBWS 230657Z 31011KT 06/M08 A3008 RMK A01 T00561076  RH  038%=      5-min Rain = 0
KBWS 230658Z 30010KT 06/M08 A3008 RMK A01 T00551076  RH  038%=      5-min Rain = 0
KBWS 230659Z 30010KT 05/M08 A3008 RMK A01 T00531076  RH  039%=      5-min Rain = 0
KBWS 230700Z 30010KT 05/M08 A3008 RMK A01 T00531076  RH  039%=      5-min Rain = 0
KBWS 230701Z 30010KT 05/M08 A3008 RMK A01 T00521075  RH  039%=      5-min Rain = 0
KBWS 230702Z 30009KT 05/M08 A3008 RMK A01 T00521075  RH  039%=      5-min Rain = 0
KBWS 230703Z 30010KT 05/M07 A3008 RMK A01 T00521074  RH  039%=      5-min Rain = 0
KBWS 230704Z 30010KT 05/M07 A3008 RMK A01 T00531074  RH  039%=      5-min Rain = 0
KBWS 230705Z 30009KT 05/M07 A3008 RMK A01 T00531074  RH  039%=      5-min Rain = 0
KBWS 230706Z 31009KT 05/M07 A3008 RMK A01 T00531074  RH  040%=      5-min Rain = 0
KBWS 230707Z 31008KT 05/M07 A3008 RMK A01 T00511074  RH  040%=      5-min Rain = 0
KBWS 230708Z 30009KT 05/M07 A3008 RMK A01 T00501074  RH  040%=      5-min Rain = 0
KBWS 230709Z 30009KT 05/M07 A3008 RMK A01 T00491074  RH  041%=      5-min Rain = 0
KBWS 230710Z 30009KT 05/M07 A3008 RMK A01 T00491073  RH  041%=      5-min Rain = 0
KBWS 230711Z 30009KT 05/M07 A3008 RMK A01 T00491073  RH  041%=      5-min Rain = 0
KBWS 230712Z 30009KT 05/M07 A3008 RMK A01 T00501073  RH  041%=      5-min Rain = 0
KBWS 230713Z 30010KT 05/M07 A3008 RMK A01 T00501073  RH  041%=      5-min Rain = 0
KBWS 230714Z 31010KT 05/M07 A3008 RMK A01 T00501073  RH  041%=      5-min Rain = 0
KBWS 230715Z 32010KT 05/M07 A3008 RMK A01 T00501073  RH  041%=      5-min Rain = 0
KBWS 230716Z 31010KT 05/M07 A3008 RMK A01 T00501073  RH  041%=      5-min Rain = 0
KBWS 230717Z 31010KT 05/M07 A3008 RMK A01 T00501072  RH  041%=      5-min Rain = 0
KBWS 230718Z 31010KT 05/M07 A3008 RMK A01 T00491072  RH  041%=      5-min Rain = 0
KBWS 230719Z 31010KT 05/M07 A3008 RMK A01 T00481072  RH  041%=      5-min Rain = 0
KBWS 230720Z 31009KT 05/M07 A3008 RMK A01 T00471072  RH  042%=      5-min Rain = 0
KBWS 230721Z 30009KT 05/M07 A3008 RMK A01 T00461072  RH  042%=      5-min Rain = 0
KBWS 230722Z 31009KT 05/M07 A3008 RMK A01 T00451072  RH  042%=      5-min Rain = 0
KBWS 230723Z 31009KT 05/M07 A3008 RMK A01 T00451072  RH  043%=      5-min Rain = 0
KBWS 230724Z 31009KT 05/M07 A3008 RMK A01 T00451071  RH  043%=      5-min Rain = 0
KBWS 230725Z 30009KT 05/M07 A3008 RMK A01 T00451071  RH  043%=      5-min Rain = 0
KBWS 230726Z 30009KT 05/M07 A3008 RMK A01 T00451071  RH  043%=      5-min Rain = 0
KBWS 230727Z 30009KT 05/M07 A3008 RMK A01 T00461070  RH  043%=      5-min Rain = 0
KBWS 230728Z 30009KT 05/M07 A3008 RMK A01 T00471070  RH  042%=      5-min Rain = 0
KBWS 230729Z 30009KT 05/M07 A3008 RMK A01 T00481070  RH  042%=      5-min Rain = 0
KBWS 230730Z 30009KT 05/M07 A3008 RMK A01 T00481070  RH  042%=      5-min Rain = 0
KBWS 230731Z 29008KT 05/M07 A3008 RMK A01 T00481070  RH  042%=      5-min Rain = 0
KBWS 230732Z 28008KT 05/M07 A3008 RMK A01 T00471070  RH  042%=      5-min Rain = 0
KBWS 230733Z 28008KT 05/M07 A3008 RMK A01 T00461069  RH  043%=      5-min Rain = 0
KBWS 230734Z 29008KT 04/M07 A3008 RMK A01 T00431070  RH  044%=      5-min Rain = 0
KBWS 230735Z 30007KT 04/M07 A3008 RMK A01 T00421070  RH  044%=      5-min Rain = 0
KBWS 230736Z 29008KT 04/M07 A3008 RMK A01 T00421070  RH  044%=      5-min Rain = 0
KBWS 230737Z 29008KT 04/M07 A3008 RMK A01 T00411070  RH  044%=      5-min Rain = 0
KBWS 230738Z 29008KT 04/M07 A3008 RMK A01 T00401070  RH  045%=      5-min Rain = 0
KBWS 230739Z 28008KT 04/M07 A3008 RMK A01 T00391069  RH  045%=      5-min Rain = 0
KBWS 230740Z 29008KT 04/M07 A3008 RMK A01 T00381069  RH  045%=      5-min Rain = 0
KBWS 230741Z 30008KT 04/M07 A3008 RMK A01 T00381069  RH  045%=      5-min Rain = 0
KBWS 230742Z 29008KT 04/M07 A3008 RMK A01 T00391070  RH  045%=      5-min Rain = 0
KBWS 230743Z 29009KT 04/M07 A3008 RMK A01 T00391070  RH  045%=      5-min Rain = 0
KBWS 230744Z 29009KT 04/M07 A3008 RMK A01 T00381070  RH  045%=      5-min Rain = 0
KBWS 230745Z 28008KT 04/M07 A3008 RMK A01 T00371069  RH  046%=      5-min Rain = 0
KBWS 230746Z 29007KT 04/M07 A3008 RMK A01 T00371068  RH  046%=      5-min Rain = 0
KBWS 230747Z 29007KT 04/M07 A3008 RMK A01 T00361068  RH  046%=      5-min Rain = 0
KBWS 230748Z 29007KT 04/M07 A3008 RMK A01 T00351068  RH  047%=      5-min Rain = 0
KBWS 230749Z 29008KT 04/M07 A3009 RMK A01 T00351069  RH  046%=      5-min Rain = 0
KBWS 230750Z 29008KT 04/M07 A3009 RMK A01 T00351069  RH  046%=      5-min Rain = 0
KBWS 230751Z 30007KT 04/M07 A3009 RMK A01 T00351069  RH  046%=      5-min Rain = 0
KBWS 230752Z 30007KT 04/M07 A3009 RMK A01 T00351069  RH  046%=      5-min Rain = 0
KBWS 230753Z 29007KT 04/M07 A3009 RMK A01 T00351069  RH  047%=      5-min Rain = 0
KBWS 230754Z 29007KT 03/M07 A3009 RMK A01 T00341069  RH  047%=      5-min Rain = 0
KBWS 230755Z 30007KT 03/M07 A3009 RMK A01 T00331069  RH  047%=      5-min Rain = 0
KBWS 230756Z 30007KT 03/M07 A3009 RMK A01 T00331069  RH  047%=      5-min Rain = 0
KBWS 230757Z 30007KT 03/M07 A3009 RMK A01 T00331069  RH  047%=      5-min Rain = 0
KBWS 230758Z 30007KT 03/M07 A3009 RMK A01 T00331069  RH  047%=      5-min Rain = 0
KBWS 230759Z 31007KT 03/M07 A3009 RMK A01 T00331069  RH  047%=      5-min Rain = 0
KBWS 230800Z 30008KT 03/M07 A3009 RMK A01 T00331069  RH  047%=      5-min Rain = 0
KBWS 230801Z 30008KT 03/M07 A3009 RMK A01 T00331069  RH  047%=      5-min Rain = 0
KBWS 230802Z 29008KT 03/M07 A3009 RMK A01 T00331069  RH  047%=      5-min Rain = 0
KBWS 230803Z 29008KT 03/M07 A3009 RMK A01 T00331069  RH  047%=      5-min Rain = 0
KBWS 230804Z 29008KT 03/M07 A3009 RMK A01 T00321069  RH  048%=      5-min Rain = 0
KBWS 230805Z 29009KT 03/M07 A3009 RMK A01 T00311069  RH  048%=      5-min Rain = 0
KBWS 230806Z 30010KT 03/M07 A3009 RMK A01 T00311068  RH  048%=      5-min Rain = 0
KBWS 230807Z 31010KT 03/M07 A3009 RMK A01 T00311068  RH  048%=      5-min Rain = 0
KBWS 230808Z 31009KT 03/M07 A3008 RMK A01 T00321068  RH  048%=      5-min Rain = 0
KBWS 230809Z 30009KT 03/M07 A3008 RMK A01 T00321069  RH  048%=      5-min Rain = 0
KBWS 230810Z 29009KT 03/M07 A3008 RMK A01 T00321069  RH  048%=      5-min Rain = 0
KBWS 230811Z 29009KT 03/M07 A3009 RMK A01 T00311069  RH  048%=      5-min Rain = 0
KBWS 230812Z 30009KT 03/M07 A3009 RMK A01 T00301069  RH  048%=      5-min Rain = 0
KBWS 230813Z 30009KT 03/M07 A3009 RMK A01 T00301069  RH  048%=      5-min Rain = 0
KBWS 230814Z 30008KT 03/M07 A3009 RMK A01 T00301069  RH  048%=      5-min Rain = 0
KBWS 230815Z 29008KT 03/M07 A3009 RMK A01 T00301069  RH  048%=      5-min Rain = 0
KBWS 230816Z 29008KT 03/M07 A3008 RMK A01 T00301069  RH  048%=      5-min Rain = 0
KBWS 230817Z 29008KT 03/M07 A3008 RMK A01 T00291069  RH  048%=      5-min Rain = 0
KBWS 230818Z 29008KT 03/M07 A3008 RMK A01 T00281069  RH  049%=      5-min Rain = 0
KBWS 230819Z 29008KT 03/M07 A3008 RMK A01 T00281068  RH  049%=      5-min Rain = 0
KBWS 230820Z 28007KT 03/M07 A3008 RMK A01 T00281068  RH  049%=      5-min Rain = 0
KBWS 230821Z 29007KT 03/M07 A3008 RMK A01 T00271067  RH  050%=      5-min Rain = 0
KBWS 230822Z 30008KT 03/M07 A3008 RMK A01 T00271067  RH  050%=      5-min Rain = 0
KBWS 230823Z 30008KT 03/M07 A3008 RMK A01 T00261067  RH  050%=      5-min Rain = 0
KBWS 230824Z 30009KT 03/M07 A3008 RMK A01 T00271067  RH  050%=      5-min Rain = 0
KBWS 230825Z 30008KT 03/M07 A3008 RMK A01 T00271067  RH  050%=      5-min Rain = 0
KBWS 230826Z 30008KT 03/M07 A3008 RMK A01 T00271067  RH  050%=      5-min Rain = 0
KBWS 230827Z 30008KT 03/M07 A3008 RMK A01 T00271067  RH  050%=      5-min Rain = 0
KBWS 230828Z 30008KT 03/M07 A3008 RMK A01 T00261067  RH  050%=      5-min Rain = 0
KBWS 230829Z 30008KT 03/M07 A3008 RMK A01 T00261067  RH  050%=      5-min Rain = 0
KBWS 230830Z 30008KT 03/M07 A3008 RMK A01 T00261067  RH  050%=      5-min Rain = 0
KBWS 230831Z 30008KT 03/M07 A3008 RMK A01 T00261067  RH  050%=      5-min Rain = 0
KBWS 230832Z 30008KT 03/M07 A3008 RMK A01 T00251067  RH  051%=      5-min Rain = 0
KBWS 230833Z 31008KT 03/M07 A3008 RMK A01 T00251067  RH  051%=      5-min Rain = 0
KBWS 230834Z 31008KT 02/M07 A3008 RMK A01 T00241068  RH  051%=      5-min Rain = 0
KBWS 230835Z 31008KT 02/M07 A3008 RMK A01 T00231068  RH  051%=      5-min Rain = 0
KBWS 230836Z 31008KT 02/M07 A3008 RMK A01 T00221068  RH  051%=      5-min Rain = 0
KBWS 230837Z 31008KT 02/M07 A3008 RMK A01 T00211068  RH  052%=      5-min Rain = 0
KBWS 230838Z 30008KT 02/M07 A3008 RMK A01 T00211067  RH  052%=      5-min Rain = 0
KBWS 230839Z 30008KT 02/M07 A3008 RMK A01 T00211067  RH  052%=      5-min Rain = 0
KBWS 230840Z 31008KT 02/M07 A3008 RMK A01 T00211067  RH  052%=      5-min Rain = 0
KBWS 230841Z 31008KT 02/M07 A3008 RMK A01 T00211067  RH  052%=      5-min Rain = 0
KBWS 230842Z 31009KT 02/M07 A3008 RMK A01 T00221067  RH  052%=      5-min Rain = 0
KBWS 230843Z 31008KT 02/M07 A3008 RMK A01 T00231067  RH  052%=      5-min Rain = 0
KBWS 230844Z 31008KT 02/M07 A3008 RMK A01 T00241067  RH  051%=      5-min Rain = 0
KBWS 230845Z 31008KT 02/M07 A3008 RMK A01 T00241068  RH  051%=      5-min Rain = 0
KBWS 230846Z 31008KT 02/M07 A3008 RMK A01 T00241068  RH  051%=      5-min Rain = 0
KBWS 230847Z 31008KT 02/M07 A3008 RMK A01 T00231068  RH  051%=      5-min Rain = 0
KBWS 230848Z 31008KT 02/M07 A3008 RMK A01 T00221068  RH  051%=      5-min Rain = 0
KBWS 230849Z 31008KT 02/M07 A3008 RMK A01 T00211068  RH  051%=      5-min Rain = 0
KBWS 230850Z 31008KT 02/M07 A3008 RMK A01 T00211068  RH  052%=      5-min Rain = 0
KBWS 230851Z 31009KT 02/M07 A3007 RMK A01 T00201068  RH  052%=      5-min Rain = 0
KBWS 230852Z 31009KT 02/M07 A3007 RMK A01 T00201068  RH  052%=      5-min Rain = 0
KBWS 230853Z 31009KT 02/M07 A3007 RMK A01 T00201068  RH  052%=      5-min Rain = 0
KBWS 230854Z 31009KT 02/M07 A3007 RMK A01 T00211068  RH  052%=      5-min Rain = 0
KBWS 230855Z 31010KT 02/M07 A3007 RMK A01 T00211068  RH  052%=      5-min Rain = 0
KBWS 230856Z 30009KT 02/M07 A3007 RMK A01 T00211068  RH  052%=      5-min Rain = 0
KBWS 230857Z 30009KT 02/M07 A3007 RMK A01 T00211067  RH  052%=      5-min Rain = 0
KBWS 230858Z 31009KT 02/M07 A3007 RMK A01 T00211067  RH  052%=      5-min Rain = 0
KBWS 230859Z 31010KT 02/M07 A3007 RMK A01 T00211067  RH  052%=      5-min Rain = 0
KBWS 230900Z 30009KT 02/M07 A3007 RMK A01 T00221067  RH  052%=      5-min Rain = 0
KBWS 230901Z 30008KT 02/M07 A3007 RMK A01 T00231067  RH  052%=      5-min Rain = 0
KBWS 230902Z 30008KT 02/M07 A3007 RMK A01 T00221067  RH  052%=      5-min Rain = 0
KBWS 230903Z 31009KT 02/M07 A3007 RMK A01 T00211067  RH  052%=      5-min Rain = 0
KBWS 230904Z 30009KT 02/M07 A3007 RMK A01 T00211067  RH  052%=      5-min Rain = 0
KBWS 230905Z 30009KT 02/M07 A3007 RMK A01 T00211067  RH  052%=      5-min Rain = 0
KBWS 230906Z 31008KT 02/M07 A3007 RMK A01 T00211067  RH  052%=      5-min Rain = 0
KBWS 230907Z 32008KT 02/M07 A3007 RMK A01 T00211067  RH  052%=      5-min Rain = 0
KBWS 230908Z 33009KT 02/M07 A3007 RMK A01 T00211067  RH  052%=      5-min Rain = 0
KBWS 230909Z 32009KT 02/M07 A3007 RMK A01 T00221067  RH  052%=      5-min Rain = 0
KBWS 230910Z 31010KT 02/M07 A3007 RMK A01 T00221066  RH  052%=      5-min Rain = 0
KBWS 230911Z 30009KT 02/M07 A3007 RMK A01 T00221067  RH  052%=      5-min Rain = 0
KBWS 230912Z 31009KT 02/M07 A3007 RMK A01 T00201068  RH  052%=      5-min Rain = 0
KBWS 230913Z 32009KT 02/M07 A3006 RMK A01 T00191068  RH  053%=      5-min Rain = 0
KBWS 230914Z 32009KT 02/M07 A3006 RMK A01 T00181068  RH  053%=      5-min Rain = 0
KBWS 230915Z 32009KT 02/M07 A3006 RMK A01 T00171067  RH  053%=      5-min Rain = 0
KBWS 230916Z 30008KT 02/M07 A3006 RMK A01 T00181067  RH  054%=      5-min Rain = 0
KBWS 230917Z 30009KT 02/M07 A3006 RMK A01 T00171067  RH  053%=      5-min Rain = 0
KBWS 230918Z 31009KT 02/M07 A3006 RMK A01 T00161068  RH  054%=      5-min Rain = 0
KBWS 230919Z 32009KT 02/M07 A3006 RMK A01 T00161067  RH  054%=      5-min Rain = 0
KBWS 230920Z 32009KT 02/M07 A3006 RMK A01 T00161067  RH  054%=      5-min Rain = 0
KBWS 230921Z 32009KT 02/M07 A3006 RMK A01 T00161067  RH  054%=      5-min Rain = 0
KBWS 230922Z 31008KT 02/M07 A3006 RMK A01 T00161067  RH  054%=      5-min Rain = 0
KBWS 230923Z 30008KT 02/M07 A3006 RMK A01 T00161067  RH  054%=      5-min Rain = 0
KBWS 230924Z 30008KT 02/M07 A3006 RMK A01 T00161067  RH  054%=      5-min Rain = 0
KBWS 230925Z 31008KT 02/M07 A3006 RMK A01 T00151067  RH  054%=      5-min Rain = 0
KBWS 230926Z 31008KT 01/M07 A3006 RMK A01 T00141067  RH  055%=      5-min Rain = 0
KBWS 230927Z 31008KT 01/M07 A3006 RMK A01 T00141067  RH  055%=      5-min Rain = 0
KBWS 230928Z 32008KT 01/M07 A3006 RMK A01 T00141067  RH  055%=      5-min Rain = 0
KBWS 230929Z 32008KT 01/M07 A3006 RMK A01 T00141067  RH  055%=      5-min Rain = 0
KBWS 230930Z 32008KT 01/M07 A3006 RMK A01 T00141066  RH  055%=      5-min Rain = 0
KBWS 230931Z 32009KT 01/M07 A3006 RMK A01 T00141066  RH  055%=      5-min Rain = 0
KBWS 230932Z 31009KT 01/M07 A3006 RMK A01 T00141067  RH  055%=      5-min Rain = 0
KBWS 230933Z 31008KT 01/M07 A3006 RMK A01 T00141067  RH  055%=      5-min Rain = 0
KBWS 230934Z 31008KT 01/M07 A3006 RMK A01 T00131067  RH  055%=      5-min Rain = 0
KBWS 230935Z 32008KT 01/M07 A3006 RMK A01 T00141067  RH  055%=      5-min Rain = 0
KBWS 230936Z 33009KT 02/M07 A3006 RMK A01 T00151066  RH  055%=      5-min Rain = 0
KBWS 230937Z 32008KT 02/M07 A3006 RMK A01 T00161067  RH  054%=      5-min Rain = 0
KBWS 230938Z 30009KT 02/M07 A3006 RMK A01 T00161067  RH  054%=      5-min Rain = 0
KBWS 230939Z 30009KT 01/M07 A3006 RMK A01 T00141068  RH  055%=      5-min Rain = 0
KBWS 230940Z 32009KT 01/M07 A3006 RMK A01 T00141067  RH  055%=      5-min Rain = 0
KBWS 230941Z 32008KT 02/M07 A3006 RMK A01 T00151067  RH  054%=      5-min Rain = 0
KBWS 230942Z 31008KT 02/M07 A3006 RMK A01 T00161067  RH  054%=      5-min Rain = 0
KBWS 230943Z 30008KT 02/M07 A3006 RMK A01 T00161067  RH  054%=      5-min Rain = 0
KBWS 230944Z 31007KT 02/M07 A3006 RMK A01 T00151067  RH  054%=      5-min Rain = 0
KBWS 230945Z 32007KT 02/M07 A3006 RMK A01 T00151067  RH  054%=      5-min Rain = 0
KBWS 230946Z 32007KT 01/M07 A3006 RMK A01 T00141067  RH  055%=      5-min Rain = 0
KBWS 230947Z 32007KT 01/M07 A3006 RMK A01 T00141067  RH  055%=      5-min Rain = 0
KBWS 230948Z 31008KT 01/M07 A3006 RMK A01 T00141067  RH  055%=      5-min Rain = 0
KBWS 230949Z 31008KT 01/M07 A3006 RMK A01 T00131068  RH  055%=      5-min Rain = 0
KBWS 230950Z 32008KT 01/M07 A3006 RMK A01 T00121068  RH  055%=      5-min Rain = 0
KBWS 230951Z 33009KT 01/M07 A3006 RMK A01 T00111067  RH  056%=      5-min Rain = 0
KBWS 230952Z 33009KT 01/M07 A3006 RMK A01 T00111067  RH  056%=      5-min Rain = 0
KBWS 230953Z 32008KT 01/M07 A3006 RMK A01 T00111067  RH  056%=      5-min Rain = 0
KBWS 230954Z 31007KT 01/M07 A3006 RMK A01 T00101068  RH  056%=      5-min Rain = 0
KBWS 230955Z 31007KT 01/M07 A3005 RMK A01 T00081068  RH  057%=      5-min Rain = 0
KBWS 230956Z 31007KT 01/M07 A3005 RMK A01 T00081068  RH  057%=      5-min Rain = 0
KBWS 230957Z 31007KT 01/M07 A3005 RMK A01 T00081068  RH  057%=      5-min Rain = 0
KBWS 230958Z 29007KT 01/M07 A3005 RMK A01 T00071068  RH  057%=      5-min Rain = 0
KBWS 230959Z 29008KT 01/M07 A3005 RMK A01 T00071067  RH  058%=      5-min Rain = 0
KBWS 231000Z 30009KT 01/M07 A3005 RMK A01 T00071066  RH  058%=      5-min Rain = 0
KBWS 231001Z 30008KT 01/M07 A3005 RMK A01 T00081066  RH  058%=      5-min Rain = 0
KBWS 231002Z 30009KT 01/M07 A3006 RMK A01 T00081066  RH  057%=      5-min Rain = 0
KBWS 231003Z 30010KT 01/M07 A3006 RMK A01 T00081066  RH  057%=      5-min Rain = 0
KBWS 231004Z 30009KT 01/M07 A3006 RMK A01 T00081067  RH  057%=      5-min Rain = 0
KBWS 231005Z 31008KT 01/M07 A3006 RMK A01 T00091067  RH  057%=      5-min Rain = 0
KBWS 231006Z 29009KT 01/M07 A3006 RMK A01 T00091067  RH  057%=      5-min Rain = 0
KBWS 231007Z 29010KT 01/M07 A3006 RMK A01 T00091067  RH  057%=      5-min Rain = 0
KBWS 231008Z 29010KT 01/M07 A3006 RMK A01 T00081067  RH  057%=      5-min Rain = 0
KBWS 231009Z 29009KT 01/M07 A3006 RMK A01 T00081068  RH  057%=      5-min Rain = 0
KBWS 231010Z 29009KT 01/M07 A3006 RMK A01 T00081068  RH  057%=      5-min Rain = 0
KBWS 231011Z 29009KT 01/M07 A3006 RMK A01 T00071068  RH  057%=      5-min Rain = 0
KBWS 231012Z 29009KT 01/M07 A3006 RMK A01 T00061068  RH  058%=      5-min Rain = 0
KBWS 231013Z 30008KT 01/M07 A3006 RMK A01 T00051068  RH  058%=      5-min Rain = 0
KBWS 231014Z 29009KT 01/M07 A3006 RMK A01 T00051068  RH  058%=      5-min Rain = 0
KBWS 231015Z 29009KT 01/M07 A3006 RMK A01 T00051068  RH  058%=      5-min Rain = 0
KBWS 231016Z 29009KT 01/M07 A3006 RMK A01 T00051068  RH  058%=      5-min Rain = 0
KBWS 231017Z 29010KT 01/M07 A3006 RMK A01 T00061068  RH  058%=      5-min Rain = 0
KBWS 231018Z 30009KT 01/M07 A3006 RMK A01 T00061068  RH  058%=      5-min Rain = 0
KBWS 231019Z 29009KT 01/M07 A3005 RMK A01 T00061068  RH  057%=      5-min Rain = 0
KBWS 231020Z 29008KT 01/M07 A3005 RMK A01 T00061068  RH  057%=      5-min Rain = 0
KBWS 231021Z 29008KT 01/M07 A3005 RMK A01 T00061068  RH  058%=      5-min Rain = 0
KBWS 231022Z 29009KT 01/M07 A3005 RMK A01 T00061068  RH  058%=      5-min Rain = 0
KBWS 231023Z 29010KT 01/M07 A3005 RMK A01 T00061068  RH  058%=      5-min Rain = 0
KBWS 231024Z 29010KT 01/M07 A3006 RMK A01 T00061068  RH  058%=      5-min Rain = 0
KBWS 231025Z 29010KT 01/M07 A3006 RMK A01 T00061068  RH  058%=      5-min Rain = 0
KBWS 231026Z 29010KT 01/M07 A3006 RMK A01 T00061068  RH  058%=      5-min Rain = 0
KBWS 231027Z 29009KT 01/M07 A3006 RMK A01 T00061068  RH  058%=      5-min Rain = 0
KBWS 231028Z 29009KT 01/M07 A3006 RMK A01 T00061068  RH  058%=      5-min Rain = 0
KBWS 231029Z 30009KT 01/M07 A3006 RMK A01 T00061068  RH  058%=      5-min Rain = 0
KBWS 231030Z 29009KT 01/M07 A3006 RMK A01 T00061068  RH  058%=      5-min Rain = 0
KBWS 231031Z 30009KT 01/M07 A3006 RMK A01 T00061068  RH  058%=      5-min Rain = 0
KBWS 231032Z 30009KT 01/M07 A3005 RMK A01 T00051068  RH  058%=      5-min Rain = 0
KBWS 231033Z 30009KT 01/M07 A3005 RMK A01 T00051068  RH  058%=      5-min Rain = 0
KBWS 231034Z 30008KT 01/M07 A3005 RMK A01 T00051069  RH  058%=      5-min Rain = 0
KBWS 231035Z 30008KT 01/M07 A3005 RMK A01 T00051069  RH  057%=      5-min Rain = 0
KBWS 231036Z 30008KT 01/M07 A3005 RMK A01 T00061069  RH  057%=      5-min Rain = 0
KBWS 231037Z 31008KT 01/M07 A3005 RMK A01 T00061069  RH  057%=      5-min Rain = 0
KBWS 231038Z 31007KT 01/M07 A3005 RMK A01 T00051069  RH  057%=      5-min Rain = 0
KBWS 231039Z 31007KT 01/M07 A3005 RMK A01 T00051069  RH  058%=      5-min Rain = 0
KBWS 231040Z 31007KT 00/M07 A3005 RMK A01 T00041069  RH  058%=      5-min Rain = 0
KBWS 231041Z 30007KT 00/M07 A3005 RMK A01 T00041069  RH  058%=      5-min Rain = 0
KBWS 231042Z 30007KT 00/M07 A3005 RMK A01 T00041069  RH  058%=      5-min Rain = 0
KBWS 231043Z 30007KT 00/M07 A3006 RMK A01 T00041069  RH  058%=      5-min Rain = 0
KBWS 231044Z 30007KT 00/M07 A3006 RMK A01 T00041069  RH  058%=      5-min Rain = 0
KBWS 231045Z 30008KT 00/M07 A3006 RMK A01 T00041068  RH  058%=      5-min Rain = 0
KBWS 231046Z 30008KT 01/M07 A3006 RMK A01 T00051068  RH  058%=      5-min Rain = 0
KBWS 231047Z 30008KT 01/M07 A3006 RMK A01 T00071068  RH  057%=      5-min Rain = 0
KBWS 231048Z 30009KT 01/M07 A3005 RMK A01 T00081068  RH  057%=      5-min Rain = 0
KBWS 231049Z 30009KT 01/M07 A3006 RMK A01 T00081069  RH  057%=      5-min Rain = 0
KBWS 231050Z 30008KT 01/M07 A3006 RMK A01 T00071069  RH  057%=      5-min Rain = 0
KBWS 231051Z 30009KT 01/M07 A3006 RMK A01 T00071069  RH  057%=      5-min Rain = 0
KBWS 231052Z 30009KT 01/M07 A3006 RMK A01 T00071070  RH  057%=      5-min Rain = 0
KBWS 231053Z 30009KT 01/M07 A3006 RMK A01 T00071070  RH  056%=      5-min Rain = 0
KBWS 231054Z 30009KT 01/M07 A3005 RMK A01 T00071070  RH  056%=      5-min Rain = 0
KBWS 231055Z 29010KT 01/M07 A3005 RMK A01 T00071070  RH  056%=      5-min Rain = 0
KBWS 231056Z 30010KT 01/M07 A3005 RMK A01 T00071070  RH  056%=      5-min Rain = 0
KBWS 231057Z 30010KT 01/M07 A3005 RMK A01 T00071070  RH  056%=      5-min Rain = 0
KBWS 231058Z 29010KT 01/M07 A3005 RMK A01 T00081070  RH  056%=      5-min Rain = 0
KBWS 231059Z 29010KT 01/M07 A3005 RMK A01 T00081070  RH  056%=      5-min Rain = 0
KBWS 231100Z 29010KT 01/M07 A3005 RMK A01 T00071070  RH  056%=      5-min Rain = 0
KBWS 231101Z 29010KT 01/M07 A3005 RMK A01 T00071069  RH  057%=      5-min Rain = 0
KBWS 231102Z 29011KT 01/M07 A3005 RMK A01 T00061069  RH  057%=      5-min Rain = 0
KBWS 231103Z 29010KT 01/M07 A3005 RMK A01 T00061069  RH  057%=      5-min Rain = 0
KBWS 231104Z 29009KT 01/M07 A3005 RMK A01 T00051069  RH  058%=      5-min Rain = 0
KBWS 231105Z 30010KT 01/M07 A3005 RMK A01 T00051069  RH  058%=      5-min Rain = 0
KBWS 231106Z 29010KT 00/M07 A3005 RMK A01 T00041069  RH  058%=      5-min Rain = 0
KBWS 231107Z 30009KT 00/M07 A3005 RMK A01 T00041069  RH  058%=      5-min Rain = 0
KBWS 231108Z 29010KT 00/M07 A3005 RMK A01 T00041069  RH  058%=      5-min Rain = 0
KBWS 231109Z 29009KT 00/M07 A3005 RMK A01 T00041069  RH  058%=      5-min Rain = 0
KBWS 231110Z 29008KT 00/M07 A3005 RMK A01 T00031069  RH  059%=      5-min Rain = 0
KBWS 231111Z 29008KT 00/M07 A3005 RMK A01 T00031069  RH  059%=      5-min Rain = 0
KBWS 231112Z 29008KT 00/M07 A3005 RMK A01 T00021068  RH  059%=      5-min Rain = 0
KBWS 231113Z 29008KT 00/M07 A3005 RMK A01 T00021068  RH  059%=      5-min Rain = 0
KBWS 231114Z 29008KT 00/M07 A3005 RMK A01 T00021068  RH  059%=      5-min Rain = 0
KBWS 231115Z 29008KT 00/M07 A3005 RMK A01 T00021068  RH  059%=      5-min Rain = 0
KBWS 231116Z 29009KT 00/M07 A3005 RMK A01 T00021068  RH  060%=      5-min Rain = 0
KBWS 231117Z 29009KT 00/M07 A3005 RMK A01 T00021068  RH  059%=      5-min Rain = 0
KBWS 231118Z 30010KT 00/M07 A3005 RMK A01 T00031068  RH  059%=      5-min Rain = 0
KBWS 231119Z 30010KT 00/M07 A3005 RMK A01 T00031068  RH  059%=      5-min Rain = 0
KBWS 231120Z 30008KT 00/M07 A3005 RMK A01 T00031068  RH  059%=      5-min Rain = 0
KBWS 231121Z 30008KT 00/M07 A3005 RMK A01 T00031068  RH  059%=      5-min Rain = 0
KBWS 231122Z 30007KT 00/M07 A3005 RMK A01 T00021068  RH  059%=      5-min Rain = 0
KBWS 231123Z 30007KT 00/M07 A3005 RMK A01 T00021069  RH  059%=      5-min Rain = 0
KBWS 231124Z 29008KT 00/M07 A3005 RMK A01 T00011069  RH  059%=      5-min Rain = 0
KBWS 231125Z 29009KT 00/M07 A3005 RMK A01 T00011068  RH  059%=      5-min Rain = 0
KBWS 231126Z 30010KT 00/M07 A3005 RMK A01 T00021068  RH  059%=      5-min Rain = 0
KBWS 231127Z 30009KT 00/M07 A3005 RMK A01 T00021068  RH  059%=      5-min Rain = 0
KBWS 231128Z 30009KT 00/M07 A3005 RMK A01 T00021069  RH  059%=      5-min Rain = 0
KBWS 231129Z 30009KT 00/M07 A3005 RMK A01 T00021068  RH  059%=      5-min Rain = 0
KBWS 231130Z 30009KT 00/M07 A3005 RMK A01 T00011068  RH  060%=      5-min Rain = 0
KBWS 231131Z 30010KT 00/M07 A3005 RMK A01 T00011068  RH  060%=      5-min Rain = 0
KBWS 231132Z 30010KT 00/M07 A3005 RMK A01 T00011069  RH  059%=      5-min Rain = 0
KBWS 231133Z 30010KT 00/M07 A3005 RMK A01 T00021069  RH  059%=      5-min Rain = 0
KBWS 231134Z 30009KT 00/M07 A3005 RMK A01 T00021069  RH  059%=      5-min Rain = 0
KBWS 231135Z 30010KT 00/M07 A3005 RMK A01 T00021069  RH  059%=      5-min Rain = 0
KBWS 231136Z 30009KT 00/M07 A3005 RMK A01 T00021070  RH  059%=      5-min Rain = 0
KBWS 231137Z 30009KT 00/M07 A3005 RMK A01 T00021070  RH  058%=      5-min Rain = 0
KBWS 231138Z 30009KT 00/M07 A3005 RMK A01 T00031070  RH  058%=      5-min Rain = 0
KBWS 231139Z 30009KT 00/M07 A3005 RMK A01 T00031070  RH  058%=      5-min Rain = 0
KBWS 231140Z 29009KT 00/M07 A3005 RMK A01 T00031070  RH  058%=      5-min Rain = 0
KBWS 231141Z 29009KT 00/M07 A3005 RMK A01 T00031070  RH  058%=      5-min Rain = 0
KBWS 231142Z 29009KT 00/M07 A3005 RMK A01 T00031069  RH  058%=      5-min Rain = 0
KBWS 231143Z 29009KT 00/M07 A3005 RMK A01 T00031070  RH  058%=      5-min Rain = 0
KBWS 231144Z 29009KT 00/M07 A3005 RMK A01 T00021069  RH  059%=      5-min Rain = 0
KBWS 231145Z 29009KT 00/M07 A3005 RMK A01 T00021069  RH  059%=      5-min Rain = 0
KBWS 231146Z 29009KT 00/M07 A3005 RMK A01 T00031069  RH  059%=      5-min Rain = 0
KBWS 231147Z 29009KT 00/M07 A3005 RMK A01 T00031069  RH  059%=      5-min Rain = 0
KBWS 231148Z 29008KT 00/M07 A3005 RMK A01 T00031069  RH  059%=      5-min Rain = 0
KBWS 231149Z 30008KT 00/M07 A3005 RMK A01 T00031068  RH  059%=      5-min Rain = 0
KBWS 231150Z 30008KT 00/M07 A3005 RMK A01 T00031068  RH  059%=      5-min Rain = 0
KBWS 231151Z 31007KT 00/M07 A3005 RMK A01 T00031069  RH  059%=      5-min Rain = 0
KBWS 231152Z 31007KT 00/M07 A3005 RMK A01 T00031069  RH  059%=      5-min Rain = 0
KBWS 231153Z 32007KT 00/M07 A3005 RMK A01 T00031069  RH  058%=      5-min Rain = 0
KBWS 231154Z 31008KT 00/M07 A3005 RMK A01 T00011070  RH  059%=      5-min Rain = 0
KBWS 231155Z 31007KT 00/07 A3005 RMK A01 T00000-69  RH  060%=      5-min Rain = 0
KBWS 231156Z 31008KT 00/07 A3005 RMK A01 T00000-69  RH  060%=      5-min Rain = 0
KBWS 231157Z 31008KT 00/07 A3005 RMK A01 T00000-69  RH  060%=      5-min Rain = 0
KBWS 231158Z 31008KT 00/M07 A3005 RMK A01 T00011069  RH  059%=      5-min Rain = 0
KBWS 231159Z 31008KT 00/07 A3005 RMK A01 T00-00-70  RH  059%=      5-min Rain = 0
KBWS 231200Z 31008KT M00/M07 A3005 RMK A01 T10011070  RH  060%=      5-min Rain = 0
KBWS 231201Z 31008KT M00/M07 A3005 RMK A01 T10021070  RH  060%=      5-min Rain = 0
KBWS 231202Z 31008KT M00/M07 A3005 RMK A01 T10021070  RH  060%=      5-min Rain = 0
KBWS 231203Z 31008KT M00/M07 A3005 RMK A01 T10011070  RH  060%=      5-min Rain = 0
KBWS 231204Z 31008KT M00/M07 A3005 RMK A01 T10011069  RH  060%=      5-min Rain = 0
KBWS 231205Z 31008KT 00/07 A3005 RMK A01 T00000-69  RH  060%=      5-min Rain = 0
KBWS 231206Z 31008KT 00/M07 A3005 RMK A01 T00011069  RH  060%=      5-min Rain = 0
KBWS 231207Z 31008KT 00/M07 A3005 RMK A01 T00011069  RH  059%=      5-min Rain = 0
KBWS 231208Z 31008KT 00/M07 A3005 RMK A01 T00011069  RH  059%=      5-min Rain = 0
KBWS 231209Z 31008KT 00/M07 A3005 RMK A01 T00011069  RH  059%=      5-min Rain = 0
KBWS 231210Z 31008KT 00/M07 A3005 RMK A01 T00011069  RH  059%=      5-min Rain = 0
KBWS 231211Z 31008KT 00/M07 A3005 RMK A01 T00011068  RH  059%=      5-min Rain = 0
KBWS 231212Z 30009KT 00/M07 A3005 RMK A01 T00011069  RH  059%=      5-min Rain = 0
KBWS 231213Z 30008KT 00/M07 A3005 RMK A01 T00011069  RH  059%=      5-min Rain = 0
KBWS 231214Z 30008KT 00/M07 A3005 RMK A01 T00011069  RH  059%=      5-min Rain = 0
KBWS 231215Z 30008KT 00/M07 A3005 RMK A01 T00011068  RH  059%=      5-min Rain = 0
KBWS 231216Z 30009KT 00/M07 A3005 RMK A01 T00011068  RH  060%=      5-min Rain = 0
KBWS 231217Z 30009KT 00/M07 A3005 RMK A01 T00011067  RH  060%=      5-min Rain = 0
KBWS 231218Z 30008KT 00/M07 A3005 RMK A01 T00021066  RH  060%=      5-min Rain = 0
KBWS 231219Z 29009KT 00/M07 A3005 RMK A01 T00031067  RH  060%=      5-min Rain = 0
KBWS 231220Z 30009KT 00/M07 A3005 RMK A01 T00031067  RH  059%=      5-min Rain = 0
KBWS 231221Z 30009KT 00/M07 A3005 RMK A01 T00031067  RH  059%=      5-min Rain = 0
KBWS 231222Z 29009KT 00/M07 A3005 RMK A01 T00041066  RH  059%=      5-min Rain = 0
KBWS 231223Z 30009KT 00/M07 A3005 RMK A01 T00041067  RH  059%=      5-min Rain = 0
KBWS 231224Z 30009KT 00/M07 A3005 RMK A01 T00031067  RH  059%=      5-min Rain = 0
KBWS 231225Z 30009KT 00/M07 A3005 RMK A01 T00031067  RH  059%=      5-min Rain = 0
KBWS 231226Z 30009KT 00/M07 A3005 RMK A01 T00031067  RH  059%=      5-min Rain = 0
KBWS 231227Z 30008KT 00/M07 A3005 RMK A01 T00021067  RH  059%=      5-min Rain = 0
KBWS 231228Z 30007KT 00/M07 A3005 RMK A01 T00031067  RH  059%=      5-min Rain = 0
KBWS 231229Z 31007KT 00/M07 A3005 RMK A01 T00021067  RH  060%=      5-min Rain = 0
KBWS 231230Z 31007KT 00/M07 A3005 RMK A01 T00011068  RH  060%=      5-min Rain = 0
KBWS 231231Z 31007KT 00/07 A3004 RMK A01 T00000-68  RH  060%=      5-min Rain = 0
KBWS 231232Z 31007KT 00/07 A3004 RMK A01 T00-00-67  RH  061%=      5-min Rain = 0
KBWS 231233Z 31007KT 00/07 A3004 RMK A01 T00-00-67  RH  061%=      5-min Rain = 0
KBWS 231234Z 31007KT 00/07 A3004 RMK A01 T00-00-67  RH  061%=      5-min Rain = 0
KBWS 231235Z 31008KT 00/M07 A3004 RMK A01 T00011066  RH  061%=      5-min Rain = 0
KBWS 231236Z 31008KT 00/M07 A3004 RMK A01 T00021066  RH  060%=      5-min Rain = 0
KBWS 231237Z 31008KT 00/M07 A3004 RMK A01 T00021066  RH  060%=      5-min Rain = 0
KBWS 231238Z 31008KT 00/M07 A3004 RMK A01 T00031067  RH  060%=      5-min Rain = 0
KBWS 231239Z 31008KT 00/M07 A3004 RMK A01 T00021067  RH  059%=      5-min Rain = 0
KBWS 231240Z 31008KT 00/M07 A3004 RMK A01 T00021068  RH  059%=      5-min Rain = 0
KBWS 231241Z 31008KT 00/M07 A3004 RMK A01 T00021068  RH  059%=      5-min Rain = 0
KBWS 231242Z 31009KT 00/M07 A3005 RMK A01 T00021068  RH  059%=      5-min Rain = 0
KBWS 231243Z 31009KT 00/M07 A3005 RMK A01 T00021068  RH  059%=      5-min Rain = 0
KBWS 231244Z 31009KT 00/M07 A3005 RMK A01 T00011068  RH  060%=      5-min Rain = 0
KBWS 231245Z 31009KT 00/M07 A3005 RMK A01 T00011068  RH  060%=      5-min Rain = 0
KBWS 231246Z 31009KT 00/M07 A3005 RMK A01 T00011068  RH  060%=      5-min Rain = 0
KBWS 231247Z 31009KT 00/M07 A3005 RMK A01 T00011067  RH  060%=      5-min Rain = 0
KBWS 231248Z 31009KT 00/M07 A3005 RMK A01 T00011067  RH  060%=      5-min Rain = 0
KBWS 231249Z 31009KT 00/M07 A3005 RMK A01 T00021067  RH  060%=      5-min Rain = 0
KBWS 231250Z 31009KT 00/M07 A3005 RMK A01 T00021067  RH  060%=      5-min Rain = 0
KBWS 231251Z 31009KT 00/M07 A3005 RMK A01 T00031066  RH  060%=      5-min Rain = 0
KBWS 231252Z 30009KT 00/M07 A3005 RMK A01 T00041066  RH  059%=      5-min Rain = 0
KBWS 231253Z 30009KT 00/M07 A3004 RMK A01 T00041066  RH  059%=      5-min Rain = 0
KBWS 231254Z 30009KT 00/M07 A3004 RMK A01 T00041066  RH  059%=      5-min Rain = 0
KBWS 231255Z 30009KT 01/M07 A3004 RMK A01 T00051066  RH  059%=      5-min Rain = 0
KBWS 231256Z 30009KT 01/M07 A3004 RMK A01 T00051066  RH  059%=      5-min Rain = 0
KBWS 231257Z 30009KT 01/M07 A3004 RMK A01 T00061066  RH  059%=      5-min Rain = 0
KBWS 231258Z 30009KT 01/M07 A3004 RMK A01 T00061066  RH  059%=      5-min Rain = 0
KBWS 231259Z 30009KT 01/M07 A3004 RMK A01 T00061066  RH  059%=      5-min Rain = 0
KBWS 231300Z 30009KT 01/M07 A3004 RMK A01 T00061066  RH  059%=      5-min Rain = 0
KBWS 231301Z 30009KT 01/M07 A3004 RMK A01 T00061065  RH  059%=      5-min Rain = 0
KBWS 231302Z 30009KT 01/M07 A3004 RMK A01 T00061065  RH  059%=      5-min Rain = 0
KBWS 231303Z 30009KT 01/M07 A3005 RMK A01 T00061065  RH  059%=      5-min Rain = 0
KBWS 231304Z 30009KT 01/M07 A3005 RMK A01 T00061065  RH  059%=      5-min Rain = 0
KBWS 231305Z 30008KT 01/M07 A3005 RMK A01 T00061065  RH  059%=      5-min Rain = 0
KBWS 231306Z 30008KT 01/M07 A3005 RMK A01 T00051066  RH  059%=      5-min Rain = 0
KBWS 231307Z 31007KT 00/M07 A3005 RMK A01 T00041066  RH  060%=      5-min Rain = 0
KBWS 231308Z 31007KT 00/M07 A3004 RMK A01 T00041065  RH  060%=      5-min Rain = 0
KBWS 231309Z 31007KT 00/M07 A3004 RMK A01 T00031066  RH  060%=      5-min Rain = 0
KBWS 231310Z 31007KT 00/M07 A3004 RMK A01 T00031065  RH  060%=      5-min Rain = 0
KBWS 231311Z 31007KT 00/M07 A3004 RMK A01 T00031065  RH  060%=      5-min Rain = 0
KBWS 231312Z 30007KT 00/M07 A3004 RMK A01 T00021066  RH  060%=      5-min Rain = 0
KBWS 231313Z 30008KT 00/M07 A3004 RMK A01 T00011066  RH  061%=      5-min Rain = 0
KBWS 231314Z 30008KT 00/M07 A3004 RMK A01 T00011065  RH  061%=      5-min Rain = 0
KBWS 231315Z 30008KT 00/M07 A3004 RMK A01 T00021065  RH  061%=      5-min Rain = 0
KBWS 231316Z 30008KT 00/M06 A3004 RMK A01 T00031064  RH  061%=      5-min Rain = 0
KBWS 231317Z 30008KT 00/M07 A3004 RMK A01 T00031065  RH  060%=      5-min Rain = 0
KBWS 231318Z 30007KT 00/M06 A3004 RMK A01 T00041064  RH  060%=      5-min Rain = 0
KBWS 231319Z 30007KT 00/M07 A3004 RMK A01 T00041065  RH  060%=      5-min Rain = 0
KBWS 231320Z 30007KT 01/M07 A3004 RMK A01 T00051065  RH  060%=      5-min Rain = 0
KBWS 231321Z 30006KT 01/M07 A3004 RMK A01 T00051065  RH  060%=      5-min Rain = 0
KBWS 231322Z 30006KT 00/M07 A3004 RMK A01 T00041065  RH  060%=      5-min Rain = 0
KBWS 231323Z 30007KT 00/M07 A3004 RMK A01 T00031065  RH  060%=      5-min Rain = 0
KBWS 231324Z 31006KT 00/M07 A3004 RMK A01 T00031065  RH  060%=      5-min Rain = 0
KBWS 231325Z 31006KT 00/M07 A3004 RMK A01 T00021065  RH  061%=      5-min Rain = 0
KBWS 231326Z 31006KT 00/07 A3004 RMK A01 T00000-66  RH  061%=      5-min Rain = 0
KBWS 231327Z 31006KT M00/M07 A3004 RMK A01 T10011066  RH  061%=      5-min Rain = 0
KBWS 231328Z 30006KT M00/M07 A3004 RMK A01 T10011066  RH  062%=      5-min Rain = 0
KBWS 231329Z 30007KT M00/M07 A3004 RMK A01 T10021065  RH  062%=      5-min Rain = 0
KBWS 231330Z 30007KT M00/M07 A3004 RMK A01 T10021065  RH  062%=      5-min Rain = 0
KBWS 231331Z 30007KT M00/M07 A3004 RMK A01 T10021065  RH  062%=      5-min Rain = 0
KBWS 231332Z 30007KT M00/M06 A3004 RMK A01 T10011064  RH  062%=      5-min Rain = 0
KBWS 231333Z 30007KT 00/M06 A3004 RMK A01 T00011064  RH  062%=      5-min Rain = 0
KBWS 231334Z 30008KT 00/M06 A3004 RMK A01 T00031064  RH  061%=      5-min Rain = 0
KBWS 231335Z 31008KT 01/M06 A3004 RMK A01 T00051063  RH  060%=      5-min Rain = 0
KBWS 231336Z 31008KT 01/M06 A3004 RMK A01 T00061063  RH  060%=      5-min Rain = 0
KBWS 231337Z 31008KT 01/M06 A3004 RMK A01 T00061064  RH  059%=      5-min Rain = 0
KBWS 231338Z 31008KT 01/M06 A3004 RMK A01 T00071064  RH  059%=      5-min Rain = 0
KBWS 231339Z 30008KT 01/M06 A3004 RMK A01 T00071064  RH  059%=      5-min Rain = 0
KBWS 231340Z 30007KT 01/M06 A3004 RMK A01 T00071064  RH  059%=      5-min Rain = 0
KBWS 231341Z 30007KT 01/M06 A3004 RMK A01 T00061064  RH  059%=      5-min Rain = 0
KBWS 231342Z 30007KT 01/M06 A3004 RMK A01 T00061064  RH  059%=      5-min Rain = 0
KBWS 231343Z 30007KT 01/M06 A3004 RMK A01 T00061064  RH  060%=      5-min Rain = 0
KBWS 231344Z 30007KT 01/M06 A3004 RMK A01 T00061063  RH  060%=      5-min Rain = 0
KBWS 231345Z 30007KT 01/M06 A3004 RMK A01 T00051063  RH  060%=      5-min Rain = 0
KBWS 231346Z 30007KT 01/M06 A3004 RMK A01 T00051063  RH  060%=      5-min Rain = 0
KBWS 231347Z 30007KT 01/M06 A3004 RMK A01 T00061063  RH  060%=      5-min Rain = 0
KBWS 231348Z 30008KT 01/M06 A3004 RMK A01 T00081062  RH  059%=      5-min Rain = 0
KBWS 231349Z 30008KT 01/M06 A3004 RMK A01 T00091062  RH  059%=      5-min Rain = 0
KBWS 231350Z 30008KT 01/M06 A3004 RMK A01 T00101062  RH  058%=      5-min Rain = 0
KBWS 231351Z 30008KT 01/M06 A3004 RMK A01 T00111062  RH  058%=      5-min Rain = 0
KBWS 231352Z 30008KT 01/M06 A3004 RMK A01 T00111063  RH  058%=      5-min Rain = 0
KBWS 231353Z 30008KT 01/M06 A3004 RMK A01 T00121063  RH  057%=      5-min Rain = 0
KBWS 231354Z 30008KT 01/M06 A3004 RMK A01 T00121063  RH  057%=      5-min Rain = 0
KBWS 231355Z 30007KT 01/M06 A3004 RMK A01 T00121064  RH  057%=      5-min Rain = 0
KBWS 231356Z 30007KT 01/M06 A3004 RMK A01 T00131064  RH  057%=      5-min Rain = 0
KBWS 231357Z 30007KT 01/M06 A3004 RMK A01 T00131064  RH  057%=      5-min Rain = 0
KBWS 231358Z 30007KT 01/M06 A3004 RMK A01 T00141063  RH  056%=      5-min Rain = 0
KBWS 231359Z 30006KT 01/M06 A3004 RMK A01 T00141063  RH  056%=      5-min Rain = 0
KBWS 231400Z 30006KT 02/M06 A3004 RMK A01 T00151063  RH  056%=      5-min Rain = 0
KBWS 231401Z 31006KT 02/M06 A3004 RMK A01 T00151063  RH  056%=      5-min Rain = 0
KBWS 231402Z 30005KT 02/M06 A3004 RMK A01 T00161062  RH  056%=      5-min Rain = 0
KBWS 231403Z 31005KT 02/M06 A3004 RMK A01 T00161061  RH  056%=      5-min Rain = 0
KBWS 231404Z 31005KT 02/M06 A3004 RMK A01 T00171061  RH  056%=      5-min Rain = 0
KBWS 231405Z 31004KT 02/M06 A3004 RMK A01 T00181060  RH  056%=      5-min Rain = 0
KBWS 231406Z 32003KT 02/M06 A3004 RMK A01 T00181059  RH  056%=      5-min Rain = 0
KBWS 231407Z 32003KT 02/M06 A3004 RMK A01 T00191057  RH  057%=      5-min Rain = 0
KBWS 231408Z 31004KT 02/M06 A3004 RMK A01 T00201058  RH  056%=      5-min Rain = 0
KBWS 231409Z 31004KT 02/M06 A3004 RMK A01 T00201060  RH  055%=      5-min Rain = 0
KBWS 231410Z 31003KT 02/M06 A3004 RMK A01 T00211060  RH  055%=      5-min Rain = 0
KBWS 231411Z 31003KT 02/M06 A3004 RMK A01 T00211060  RH  055%=      5-min Rain = 0
KBWS 231412Z 29004KT 02/M06 A3004 RMK A01 T00211059  RH  055%=      5-min Rain = 0
KBWS 231413Z 29007KT 02/M06 A3004 RMK A01 T00221057  RH  056%=      5-min Rain = 0
KBWS 231414Z 29009KT 02/M06 A3004 RMK A01 T00231058  RH  055%=      5-min Rain = 0
KBWS 231415Z 29009KT 02/M06 A3004 RMK A01 T00241059  RH  054%=      5-min Rain = 0
KBWS 231416Z 29008KT 03/M06 A3004 RMK A01 T00251059  RH  054%=      5-min Rain = 0
KBWS 231417Z 29010KT 03/M06 A3004 RMK A01 T00261058  RH  054%=      5-min Rain = 0
KBWS 231418Z 29010KT 03/M06 A3004 RMK A01 T00271058  RH  054%=      5-min Rain = 0
KBWS 231419Z 29009KT 03/M06 A3004 RMK A01 T00281058  RH  053%=      5-min Rain = 0
KBWS 231420Z 29009KT 03/M06 A3004 RMK A01 T00281058  RH  053%=      5-min Rain = 0
KBWS 231421Z 28009KT 03/M06 A3004 RMK A01 T00291056  RH  054%=      5-min Rain = 0
KBWS 231422Z 28008KT 03/M05 A3004 RMK A01 T00301054  RH  054%=      5-min Rain = 0
KBWS 231423Z 28009KT 03/M05 A3004 RMK A01 T00311054  RH  054%=      5-min Rain = 0
KBWS 231424Z 28009KT 03/M05 A3004 RMK A01 T00341054  RH  052%=      5-min Rain = 0
KBWS 231425Z 28011KT 04/M06 A3004 RMK A01 T00351055  RH  052%=      5-min Rain = 0
KBWS 231426Z 29012KT 04/M06 A3004 RMK A01 T00371056  RH  051%=      5-min Rain = 0
KBWS 231427Z 29013KT 04/M06 A3004 RMK A01 T00371057  RH  050%=      5-min Rain = 0
KBWS 231428Z 29012KT 04/M06 A3004 RMK A01 T00381058  RH  050%=      5-min Rain = 0
KBWS 231429Z 29013KT 04/M06 A3004 RMK A01 T00381057  RH  050%=      5-min Rain = 0
KBWS 231430Z 29012KT 04/M06 A3004 RMK A01 T00391056  RH  050%=      5-min Rain = 0
KBWS 231431Z 29012KT 04/M06 A3004 RMK A01 T00401055  RH  050%=      5-min Rain = 0
KBWS 231432Z 29012KT 04/M06 A3004 RMK A01 T00411055  RH  049%=      5-min Rain = 0
KBWS 231433Z 29012KT 04/M06 A3004 RMK A01 T00431055  RH  049%=      5-min Rain = 0
KBWS 231434Z 29012KT 04/M06 A3004 RMK A01 T00441055  RH  048%=      5-min Rain = 0
KBWS 231435Z 29012KT 05/M06 A3004 RMK A01 T00461055  RH  048%=      5-min Rain = 0
KBWS 231436Z 29012KT 05/M05 A3004 RMK A01 T00471054  RH  048%=      5-min Rain = 0
KBWS 231437Z 29012KT 05/M05 A3004 RMK A01 T00481054  RH  047%=      5-min Rain = 0
KBWS 231438Z 29012KT 05/M06 A3004 RMK A01 T00501055  RH  047%=      5-min Rain = 0
KBWS 231439Z 29011KT 05/M05 A3004 RMK A01 T00511054  RH  047%=      5-min Rain = 0
KBWS 231440Z 29011KT 05/M05 A3004 RMK A01 T00521053  RH  047%=      5-min Rain = 0
KBWS 231441Z 29011KT 05/M05 A3004 RMK A01 T00531053  RH  046%=      5-min Rain = 0
KBWS 231442Z 29011KT 06/M05 A3004 RMK A01 T00551052  RH  046%=      5-min Rain = 0
KBWS 231443Z 29011KT 06/M05 A3004 RMK A01 T00561052  RH  046%=      5-min Rain = 0
KBWS 231444Z 29011KT 06/M05 A3004 RMK A01 T00571052  RH  045%=      5-min Rain = 0
KBWS 231445Z 29010KT 06/M05 A3004 RMK A01 T00591051  RH  045%=      5-min Rain = 0
KBWS 231446Z 29012KT 06/M05 A3004 RMK A01 T00601051  RH  045%=      5-min Rain = 0
KBWS 231447Z 29012KT 06/M05 A3004 RMK A01 T00611053  RH  044%=      5-min Rain = 0
KBWS 231448Z 29012KT 06/M05 A3004 RMK A01 T00621052  RH  044%=      5-min Rain = 0
KBWS 231449Z 29012KT 06/M05 A3004 RMK A01 T00631051  RH  044%=      5-min Rain = 0
KBWS 231450Z 29012KT 06/M05 A3004 RMK A01 T00641052  RH  043%=      5-min Rain = 0
KBWS 231451Z 29012KT 07/M05 A3004 RMK A01 T00651052  RH  043%=      5-min Rain = 0
KBWS 231452Z 29011KT 07/M05 A3004 RMK A01 T00661052  RH  043%=      5-min Rain = 0
KBWS 231453Z 29010KT 07/M05 A3004 RMK A01 T00671051  RH  043%=      5-min Rain = 0
KBWS 231454Z 29011KT 07/M05 A3004 RMK A01 T00681049  RH  043%=      5-min Rain = 0
KBWS 231455Z 29011KT 07/M05 A3004 RMK A01 T00691051  RH  042%=      5-min Rain = 0
KBWS 231456Z 29010KT 07/M05 A3004 RMK A01 T00701051  RH  042%=      5-min Rain = 0
KBWS 231457Z 29011KT 07/M05 A3004 RMK A01 T00721050  RH  042%=      5-min Rain = 0
KBWS 231458Z 29011KT 07/M05 A3004 RMK A01 T00731050  RH  041%=      5-min Rain = 0
KBWS 231459Z 29011KT 07/M05 A3004 RMK A01 T00741050  RH  041%=      5-min Rain = 0
KBWS 231500Z 29011KT 08/M05 A3004 RMK A01 T00761050  RH  041%=      5-min Rain = 0
KBWS 231501Z 29011KT 08/M05 A3004 RMK A01 T00771050  RH  040%=      5-min Rain = 0
KBWS 231502Z 29011KT 08/M05 A3004 RMK A01 T00781050  RH  040%=      5-min Rain = 0
KBWS 231503Z 29010KT 08/M05 A3004 RMK A01 T00791048  RH  040%=      5-min Rain = 0
KBWS 231504Z 29011KT 08/M05 A3004 RMK A01 T00801048  RH  040%=      5-min Rain = 0
KBWS 231505Z 29010KT 08/M05 A3004 RMK A01 T00811047  RH  040%=      5-min Rain = 0
KBWS 231506Z 29012KT 08/M05 A3004 RMK A01 T00821048  RH  039%=      5-min Rain = 0
KBWS 231507Z 29012KT 08/M05 A3004 RMK A01 T00831049  RH  039%=      5-min Rain = 0
KBWS 231508Z 29011KT 08/M05 A3004 RMK A01 T00831050  RH  038%=      5-min Rain = 0
KBWS 231509Z 29010KT 08/M05 A3004 RMK A01 T00841049  RH  039%=      5-min Rain = 0
KBWS 231510Z 28010KT 08/M05 A3004 RMK A01 T00841049  RH  039%=      5-min Rain = 0
KBWS 231511Z 28010KT 09/M05 A3004 RMK A01 T00851048  RH  039%=      5-min Rain = 0
KBWS 231512Z 28010KT 09/M05 A3004 RMK A01 T00871049  RH  038%=      5-min Rain = 0
KBWS 231513Z 28010KT 09/M05 A3004 RMK A01 T00881049  RH  038%=      5-min Rain = 0
KBWS 231514Z 28011KT 09/M05 A3004 RMK A01 T00881050  RH  037%=      5-min Rain = 0
KBWS 231515Z 28009KT 09/M05 A3004 RMK A01 T00891050  RH  037%=      5-min Rain = 0
KBWS 231516Z 28010KT 09/M05 A3004 RMK A01 T00901049  RH  037%=      5-min Rain = 0
KBWS 231517Z 28011KT 09/M05 A3004 RMK A01 T00911051  RH  036%=      5-min Rain = 0
KBWS 231518Z 28010KT 09/M05 A3004 RMK A01 T00921049  RH  036%=      5-min Rain = 0
KBWS 231519Z 29011KT 09/M05 A3004 RMK A01 T00931049  RH  036%=      5-min Rain = 0
KBWS 231520Z 28009KT 09/M05 A3004 RMK A01 T00941049  RH  036%=      5-min Rain = 0
KBWS 231521Z 28010KT 10/M05 A3004 RMK A01 T00951049  RH  036%=      5-min Rain = 0
KBWS 231522Z 28011KT 10/M05 A3004 RMK A01 T00951049  RH  036%=      5-min Rain = 0
KBWS 231523Z 29011KT 10/M05 A3004 RMK A01 T00971050  RH  035%=      5-min Rain = 0
KBWS 231524Z 29011KT 10/M05 A3004 RMK A01 T00971050  RH  035%=      5-min Rain = 0
KBWS 231525Z 28010KT 10/M05 A3004 RMK A01 T00981049  RH  035%=      5-min Rain = 0
KBWS 231526Z 28010KT 10/M05 A3004 RMK A01 T00991048  RH  035%=      5-min Rain = 0
KBWS 231527Z 28009KT 10/M05 A3004 RMK A01 T01001046  RH  035%=      5-min Rain = 0
KBWS 231528Z 28008KT 10/M04 A3004 RMK A01 T01021044  RH  036%=      5-min Rain = 0
KBWS 231529Z 28009KT 10/M04 A3004 RMK A01 T01041041  RH  036%=      5-min Rain = 0
KBWS 231530Z 28009KT 11/M04 A3004 RMK A01 T01061044  RH  035%=      5-min Rain = 0
KBWS 231531Z 28009KT 11/M04 A3004 RMK A01 T01061044  RH  034%=      5-min Rain = 0
KBWS 231532Z 28010KT 11/M05 A3004 RMK A01 T01081045  RH  034%=      5-min Rain = 0
KBWS 231533Z 29009KT 11/M05 A3004 RMK A01 T01081046  RH  034%=      5-min Rain = 0
KBWS 231534Z 29010KT 11/M05 A3004 RMK A01 T01101046  RH  033%=      5-min Rain = 0
KBWS 231535Z 29011KT 11/M05 A3004 RMK A01 T01121047  RH  033%=      5-min Rain = 0
KBWS 231536Z 29009KT 11/M05 A3004 RMK A01 T01121047  RH  032%=      5-min Rain = 0
KBWS 231537Z 29011KT 11/M04 A3004 RMK A01 T01141044  RH  033%=      5-min Rain = 0
KBWS 231538Z 29010KT 12/M05 A3004 RMK A01 T01151051  RH  031%=      5-min Rain = 0
KBWS 231539Z 29010KT 12/M05 A3004 RMK A01 T01161050  RH  031%=      5-min Rain = 0
KBWS 231540Z 29011KT 12/M05 A3003 RMK A01 T01171047  RH  031%=      5-min Rain = 0
KBWS 231541Z 29010KT 12/M05 A3003 RMK A01 T01181050  RH  031%=      5-min Rain = 0
KBWS 231542Z 29010KT 12/M05 A3003 RMK A01 T01191049  RH  031%=      5-min Rain = 0
KBWS 231543Z 29010KT 12/M05 A3003 RMK A01 T01201048  RH  030%=      5-min Rain = 0
KBWS 231544Z 29011KT 12/M05 A3003 RMK A01 T01211048  RH  030%=      5-min Rain = 0
KBWS 231545Z 29012KT 12/M05 A3003 RMK A01 T01221050  RH  030%=      5-min Rain = 0
KBWS 231546Z 29011KT 12/M05 A3003 RMK A01 T01241051  RH  029%=      5-min Rain = 0
KBWS 231547Z 29012KT 13/M05 A3003 RMK A01 T01251051  RH  029%=      5-min Rain = 0
KBWS 231548Z 29012KT 13/M05 A3003 RMK A01 T01251050  RH  029%=      5-min Rain = 0
KBWS 231549Z 29012KT 13/M05 A3003 RMK A01 T01261049  RH  029%=      5-min Rain = 0
KBWS 231550Z 29011KT 13/M05 A3003 RMK A01 T01271049  RH  029%=      5-min Rain = 0
KBWS 231551Z 28010KT 13/M05 A3003 RMK A01 T01281049  RH  029%=      5-min Rain = 0
KBWS 231552Z 29011KT 13/M05 A3003 RMK A01 T01291046  RH  029%=      5-min Rain = 0
KBWS 231553Z 29011KT 13/M05 A3003 RMK A01 T01311047  RH  029%=      5-min Rain = 0
KBWS 231554Z 28010KT 13/M05 A3003 RMK A01 T01321047  RH  028%=      5-min Rain = 0
KBWS 231555Z 28010KT 13/M05 A3003 RMK A01 T01331046  RH  028%=      5-min Rain = 0
KBWS 231556Z 28010KT 13/M05 A3003 RMK A01 T01341046  RH  028%=      5-min Rain = 0
KBWS 231557Z 28009KT 13/M05 A3003 RMK A01 T01341047  RH  028%=      5-min Rain = 0
KBWS 231558Z 28009KT 14/M04 A3003 RMK A01 T01351043  RH  029%=      5-min Rain = 0
KBWS 231559Z 28008KT 14/M04 A3003 RMK A01 T01381041  RH  029%=      5-min Rain = 0
KBWS 231600Z 28009KT 14/M04 A3003 RMK A01 T01401041  RH  028%=      5-min Rain = 0
KBWS 231601Z 29009KT 14/M04 A3003 RMK A01 T01421043  RH  027%=      5-min Rain = 0
KBWS 231602Z 29010KT 14/M04 A3003 RMK A01 T01431044  RH  027%=      5-min Rain = 0
KBWS 231603Z 29009KT 14/M04 A3003 RMK A01 T01441044  RH  027%=      5-min Rain = 0
KBWS 231604Z 29010KT 15/M05 A3003 RMK A01 T01451045  RH  027%=      5-min Rain = 0
KBWS 231605Z 28009KT 15/M04 A3003 RMK A01 T01451044  RH  027%=      5-min Rain = 0
KBWS 231606Z 28011KT 15/M05 A3003 RMK A01 T01471045  RH  026%=      5-min Rain = 0
KBWS 231607Z 27010KT 15/M05 A3003 RMK A01 T01491047  RH  025%=      5-min Rain = 0
KBWS 231608Z 28010KT 15/M05 A3003 RMK A01 T01511045  RH  026%=      5-min Rain = 0
KBWS 231609Z 28012KT 15/M05 A3003 RMK A01 T01541046  RH  025%=      5-min Rain = 0
KBWS 231610Z 28010KT 15/M05 A3003 RMK A01 T01541050  RH  024%=      5-min Rain = 0
KBWS 231611Z 28010KT 15/M05 A3003 RMK A01 T01541048  RH  025%=      5-min Rain = 0
KBWS 231612Z 28011KT 16/M05 A3003 RMK A01 T01551045  RH  025%=      5-min Rain = 0
KBWS 231613Z 28011KT 16/M05 A3003 RMK A01 T01551049  RH  024%=      5-min Rain = 0
KBWS 231614Z 28010KT 16/M05 A3003 RMK A01 T01561047  RH  024%=      5-min Rain = 0
KBWS 231615Z 27010KT 16/M05 A3003 RMK A01 T01571048  RH  024%=      5-min Rain = 0
KBWS 231616Z 27009KT 16/M04 A3003 RMK A01 T01581044  RH  025%=      5-min Rain = 0
KBWS 231617Z 26010KT 16/M04 A3003 RMK A01 T01601044  RH  024%=      5-min Rain = 0
KBWS 231618Z 27008KT 16/M04 A3003 RMK A01 T01601044  RH  024%=      5-min Rain = 0
KBWS 231619Z 27012KT 16/M05 A3003 RMK A01 T01611046  RH  024%=      5-min Rain = 0
KBWS 231620Z 27012KT 16/M05 A3003 RMK A01 T01601049  RH  023%=      5-min Rain = 0
KBWS 231621Z 27010KT 16/M05 A3003 RMK A01 T01591049  RH  024%=      5-min Rain = 0
KBWS 231622Z 27012KT 16/M05 A3003 RMK A01 T01591050  RH  023%=      5-min Rain = 0
KBWS 231623Z 27013KT 16/M05 A3003 RMK A01 T01601053  RH  023%=      5-min Rain = 0
KBWS 231624Z 27012KT 16/M06 A3003 RMK A01 T01581055  RH  023%=      5-min Rain = 0
KBWS 231625Z 27012KT 16/M06 A3003 RMK A01 T01581055  RH  023%=      5-min Rain = 0
KBWS 231626Z 28012KT 16/M05 A3003 RMK A01 T01581052  RH  023%=      5-min Rain = 0
KBWS 231627Z 27011KT 16/M05 A3003 RMK A01 T01591052  RH  023%=      5-min Rain = 0
KBWS 231628Z 27011KT 16/M05 A3003 RMK A01 T01611053  RH  023%=      5-min Rain = 0
KBWS 231629Z 27012KT 16/M05 A3003 RMK A01 T01621052  RH  023%=      5-min Rain = 0
KBWS 231630Z 28013KT 16/M05 A3003 RMK A01 T01631051  RH  023%=      5-min Rain = 0
KBWS 231631Z 28012KT 16/M05 A3003 RMK A01 T01631053  RH  022%=      5-min Rain = 0
KBWS 231632Z 27012KT 16/M05 A3003 RMK A01 T01641049  RH  023%=      5-min Rain = 0
KBWS 231633Z 27011KT 16/M06 A3003 RMK A01 T01641055  RH  022%=      5-min Rain = 0
KBWS 231634Z 26011KT 16/M05 A3003 RMK A01 T01631053  RH  022%=      5-min Rain = 0
KBWS 231635Z 26011KT 17/M05 A3003 RMK A01 T01651051  RH  022%=      5-min Rain = 0
KBWS 231636Z 27011KT 17/M05 A3003 RMK A01 T01671052  RH  022%=      5-min Rain = 0
KBWS 231637Z 26012KT 17/M05 A3003 RMK A01 T01691051  RH  022%=      5-min Rain = 0
KBWS 231638Z 26012KT 17/M06 A3003 RMK A01 T01691056  RH  021%=      5-min Rain = 0
KBWS 231639Z 27011KT 17/M05 A3003 RMK A01 T01691053  RH  022%=      5-min Rain = 0
KBWS 231640Z 26010KT 17/M05 A3003 RMK A01 T01701051  RH  022%=      5-min Rain = 0
KBWS 231641Z 26010KT 17/M06 A3003 RMK A01 T01711055  RH  021%=      5-min Rain = 0
KBWS 231642Z 26012KT 17/M05 A3003 RMK A01 T01711054  RH  021%=      5-min Rain = 0
KBWS 231643Z 27012KT 17/M06 A3003 RMK A01 T01721056  RH  020%=      5-min Rain = 0
KBWS 231644Z 27011KT 17/M06 A3002 RMK A01 T01721056  RH  021%=      5-min Rain = 0
KBWS 231645Z 27009KT 17/M05 A3002 RMK A01 T01731054  RH  021%=      5-min Rain = 0
KBWS 231646Z 26011KT 17/M05 A3002 RMK A01 T01741053  RH  021%=      5-min Rain = 0
KBWS 231647Z 26011KT 18/M06 A3002 RMK A01 T01751059  RH  020%=      5-min Rain = 0
KBWS 231648Z 25012KT 18/M05 A3002 RMK A01 T01761054  RH  020%=      5-min Rain = 0
KBWS 231649Z 24012KT 18/M05 A3002 RMK A01 T01791052  RH  020%=      5-min Rain = 0
KBWS 231650Z 24013KT 18/M06 A3002 RMK A01 T01791059  RH  019%=      5-min Rain = 0
KBWS 231651Z 25012KT 18/M06 A3002 RMK A01 T01771057  RH  020%=      5-min Rain = 0
KBWS 231652Z 25012KT 18/M05 A3002 RMK A01 T01791054  RH  020%=      5-min Rain = 0
KBWS 231653Z 25010KT 18/M05 A3002 RMK A01 T01801054  RH  020%=      5-min Rain = 0
KBWS 231654Z 24009KT 18/M05 A3002 RMK A01 T01811050  RH  020%=      5-min Rain = 0
KBWS 231655Z 24011KT 18/M06 A3002 RMK A01 T01821055  RH  019%=      5-min Rain = 0
KBWS 231656Z 24013KT 18/M06 A3002 RMK A01 T01801058  RH  019%=      5-min Rain = 0
KBWS 231657Z 25012KT 18/M06 A3002 RMK A01 T01791060  RH  019%=      5-min Rain = 0
KBWS 231658Z 25011KT 18/M06 A3002 RMK A01 T01781055  RH  020%=      5-min Rain = 0
KBWS 231659Z 24012KT 18/M06 A3002 RMK A01 T01811055  RH  020%=      5-min Rain = 0
KBWS 231700Z 24013KT 18/M06 A3002 RMK A01 T01811059  RH  019%=      5-min Rain = 0
KBWS 231701Z 25011KT 18/M06 A3002 RMK A01 T01801059  RH  019%=      5-min Rain = 0
KBWS 231702Z 26009KT 18/M05 A3002 RMK A01 T01831053  RH  020%=      5-min Rain = 0
KBWS 231703Z 23009G14KT 19/M05 A3002 RMK A01 T01851052  RH  020%=      5-min Rain = 0
KBWS 231704Z 23010KT 19/M05 A3002 RMK A01 T01861049  RH  020%=      5-min Rain = 0
KBWS 231705Z 24010KT 19/M05 A3002 RMK A01 T01851052  RH  019%=      5-min Rain = 0
KBWS 231706Z 24008KT 18/M05 A3002 RMK A01 T01841052  RH  020%=      5-min Rain = 0
KBWS 231707Z 24011KT 18/M05 A3002 RMK A01 T01831051  RH  020%=      5-min Rain = 0
KBWS 231708Z 23012KT 18/M06 A3002 RMK A01 T01841055  RH  019%=      5-min Rain = 0
KBWS 231709Z 24013KT 18/M06 A3002 RMK A01 T01841058  RH  019%=      5-min Rain = 0
KBWS 231710Z 23012G17KT 18/M06 A3002 RMK A01 T01841060  RH  018%=      5-min Rain = 0
KBWS 231711Z 24013KT 18/M06 A3002 RMK A01 T01841059  RH  019%=      5-min Rain = 0
KBWS 231712Z 25011KT 19/M06 A3002 RMK A01 T01861059  RH  018%=      5-min Rain = 0
KBWS 231713Z 25012KT 19/M06 A3002 RMK A01 T01871057  RH  019%=      5-min Rain = 0
KBWS 231714Z 24013KT 19/M06 A3002 RMK A01 T01881059  RH  018%=      5-min Rain = 0
KBWS 231715Z 24014KT 19/M06 A3002 RMK A01 T01881059  RH  018%=      5-min Rain = 0
KBWS 231716Z 24013KT 19/M06 A3002 RMK A01 T01871056  RH  019%=      5-min Rain = 0
KBWS 231717Z 24012KT 19/M05 A3002 RMK A01 T01871054  RH  019%=      5-min Rain = 0
KBWS 231718Z 24011KT 19/M05 A3002 RMK A01 T01891048  RH  020%=      5-min Rain = 0
KBWS 231719Z 25014KT 19/M05 A3002 RMK A01 T01921053  RH  019%=      5-min Rain = 0
KBWS 231720Z 25014KT 19/M06 A3001 RMK A01 T01901059  RH  018%=      5-min Rain = 0
KBWS 231721Z 24012KT 19/M06 A3001 RMK A01 T01871064  RH  018%=      5-min Rain = 0
KBWS 231722Z 23011KT 19/M06 A3001 RMK A01 T01851059  RH  019%=      5-min Rain = 0
KBWS 231723Z 23013G18KT 19/M06 A3001 RMK A01 T01861059  RH  018%=      5-min Rain = 0
KBWS 231724Z 24014KT 19/M06 A3001 RMK A01 T01871062  RH  018%=      5-min Rain = 0
KBWS 231725Z 24011KT 19/M06 A3001 RMK A01 T01871062  RH  018%=      5-min Rain = 0
KBWS 231726Z 23012KT 19/M06 A3001 RMK A01 T01881062  RH  018%=      5-min Rain = 0
KBWS 231727Z 24013G19KT 19/M06 A3001 RMK A01 T01871062  RH  018%=      5-min Rain = 0
KBWS 231728Z 24015KT 19/M06 A3001 RMK A01 T01891064  RH  017%=      5-min Rain = 0
KBWS 231729Z 24015KT 19/M06 A3001 RMK A01 T01911063  RH  017%=      5-min Rain = 0
KBWS 231730Z 24014KT 19/M06 A3001 RMK A01 T01931063  RH  017%=      5-min Rain = 0
KBWS 231731Z 24014KT 19/M06 A3001 RMK A01 T01921064  RH  017%=      5-min Rain = 0
KBWS 231732Z 24015KT 19/M07 A3001 RMK A01 T01931069  RH  016%=      5-min Rain = 0
KBWS 231733Z 22013G18KT 19/M06 A3001 RMK A01 T01941064  RH  017%=      5-min Rain = 0
KBWS 231734Z 22016G21KT 20/M06 A3001 RMK A01 T01951058  RH  018%=      5-min Rain = 0
KBWS 231735Z 21015KT 20/M06 A3001 RMK A01 T01951063  RH  017%=      5-min Rain = 0
KBWS 231736Z 22014G21KT 20/M07 A3001 RMK A01 T01951065  RH  017%=      5-min Rain = 0
KBWS 231737Z 22016G21KT 20/M06 A3001 RMK A01 T01951061  RH  017%=      5-min Rain = 0
KBWS 231738Z 21016KT 20/M06 A3001 RMK A01 T01961063  RH  017%=      5-min Rain = 0
KBWS 231739Z 23013G18KT 20/M07 A3001 RMK A01 T01951066  RH  017%=      5-min Rain = 0
KBWS 231740Z 24014G19KT 19/M07 A30 RMK A01 T01941065  RH  017%=      5-min Rain = 0
KBWS 231741Z 23014KT 20/M06 A30 RMK A01 T01951064  RH  017%=      5-min Rain = 0
KBWS 231742Z 22015KT 20/M07 A30 RMK A01 T01961067  RH  016%=      5-min Rain = 0
KBWS 231743Z 23015G21KT 20/M07 A30 RMK A01 T01951067  RH  016%=      5-min Rain = 0
KBWS 231744Z 23016KT 20/M08 A30 RMK A01 T01951076  RH  015%=      5-min Rain = 0
KBWS 231745Z 23013KT 20/M08 A30 RMK A01 T01961075  RH  015%=      5-min Rain = 0
KBWS 231746Z 22016KT 20/M07 A30 RMK A01 T01971072  RH  016%=      5-min Rain = 0
KBWS 231747Z 22019KT 20/M08 A30 RMK A01 T01991082  RH  014%=      5-min Rain = 0
KBWS 231748Z 22018KT 20/M09 A30 RMK A01 T01991086  RH  014%=      5-min Rain = 0
KBWS 231749Z 22018G23KT 20/M08 A30 RMK A01 T01981084  RH  014%=      5-min Rain = 0
KBWS 231750Z 24017KT 20/M08 A30 RMK A01 T01991082  RH  014%=      5-min Rain = 0
KBWS 231751Z 24016G21KT 20/M09 A2999 RMK A01 T02001085  RH  014%=      5-min Rain = 0
KBWS 231752Z 23017KT 20/M08 A2999 RMK A01 T02001078  RH  015%=      5-min Rain = 0
KBWS 231753Z 21016KT 20/M09 A2999 RMK A01 T02011085  RH  014%=      5-min Rain = 0
KBWS 231754Z 22016KT 20/M08 A2999 RMK A01 T02011084  RH  014%=      5-min Rain = 0
KBWS 231755Z 23018KT 20/M08 A2999 RMK A01 T02021081  RH  014%=      5-min Rain = 0
KBWS 231756Z 22018KT 20/M08 A2999 RMK A01 T02021081  RH  014%=      5-min Rain = 0
KBWS 231757Z 22015KT 20/M08 A2999 RMK A01 T02021082  RH  014%=      5-min Rain = 0
KBWS 231758Z 24015KT 20/M08 A2999 RMK A01 T02021083  RH  014%=      5-min Rain = 0
KBWS 231759Z 23014KT 20/M08 A2999 RMK A01 T02011082  RH  014%=      5-min Rain = 0
KBWS 231800Z 22017G25KT 20/M08 A2999 RMK A01 T02011081  RH  014%=      5-min Rain = 0
KBWS 231801Z 23016G22KT 20/M08 A2999 RMK A01 T02041077  RH  014%=      5-min Rain = 0
KBWS 231802Z 22015KT 21/M08 A2999 RMK A01 T02061082  RH  014%=      5-min Rain = 0
KBWS 231803Z 22015G21KT 21/M08 A2999 RMK A01 T02051080  RH  014%=      5-min Rain = 0
KBWS 231804Z 22017KT 21/M08 A2998 RMK A01 T02051081  RH  014%=      5-min Rain = 0
KBWS 231805Z 23019G24KT 21/M08 A2998 RMK A01 T02051082  RH  014%=      5-min Rain = 0
KBWS 231806Z 22016G22KT 21/M08 A2998 RMK A01 T02061083  RH  014%=      5-min Rain = 0
KBWS 231807Z 23019G24KT 21/M08 A2998 RMK A01 T02061084  RH  013%=      5-min Rain = 0
KBWS 231808Z 23013KT 20/M08 A2998 RMK A01 T02041083  RH  014%=      5-min Rain = 0
KBWS 231809Z 22016KT 21/M08 A2998 RMK A01 T02061076  RH  014%=      5-min Rain = 0
KBWS 231810Z 21015KT 21/M08 A2998 RMK A01 T02081078  RH  014%=      5-min Rain = 0
KBWS 231811Z 22014KT 21/M08 A2998 RMK A01 T02081077  RH  014%=      5-min Rain = 0
KBWS 231812Z 22018G23KT 21/M08 A2998 RMK A01 T02091082  RH  013%=      5-min Rain = 0
KBWS 231813Z 23016KT 21/M09 A2998 RMK A01 T02101086  RH  013%=      5-min Rain = 0
KBWS 231814Z 23018G25KT 21/M09 A2997 RMK A01 T02131087  RH  013%=      5-min Rain = 0
KBWS 231815Z 23020G25KT 22/M09 A2997 RMK A01 T02151092  RH  012%=      5-min Rain = 0
KBWS 231816Z 23019G24KT 21/M10 A2997 RMK A01 T02141095  RH  012%=      5-min Rain = 0
KBWS 231817Z 23019G24KT 21/M10 A2997 RMK A01 T02131096  RH  012%=      5-min Rain = 0
KBWS 231818Z 23016G23KT 21/M10 A2997 RMK A01 T02121097  RH  012%=      5-min Rain = 0
KBWS 231819Z 22019G24KT 21/M09 A2997 RMK A01 T02111094  RH  012%=      5-min Rain = 0
KBWS 231820Z 23019G25KT 21/M09 A2997 RMK A01 T02121093  RH  012%=      5-min Rain = 0
KBWS 231821Z 23020KT 21/M09 A2997 RMK A01 T02131093  RH  012%=      5-min Rain = 0
KBWS 231822Z 23019KT 21/M10 A2997 RMK A01 T02141095  RH  012%=      5-min Rain = 0
KBWS 231823Z 24015KT 21/M10 A2997 RMK A01 T02121096  RH  012%=      5-min Rain = 0
KBWS 231824Z 22019KT 21/M09 A2997 RMK A01 T02121092  RH  012%=      5-min Rain = 0
KBWS 231825Z 23020G25KT 21/M10 A2996 RMK A01 T02131096  RH  012%=      5-min Rain = 0
KBWS 231826Z 23017G22KT 21/M09 A2996 RMK A01 T02131093  RH  012%=      5-min Rain = 0
KBWS 231827Z 23016G29KT 21/M09 A2996 RMK A01 T02141092  RH  012%=      5-min Rain = 0
KBWS 231828Z 24024KT 22/M10 A2996 RMK A01 T02151096  RH  012%=      5-min Rain = 0
KBWS 231829Z 24022KT 21/M10 A2996 RMK A01 T02141099  RH  011%=      5-min Rain = 0
KBWS 231830Z 24020G25KT 21/M10 A2996 RMK A01 T02141097  RH  011%=      5-min Rain = 0
KBWS 231831Z 24021G26KT 22/M10 A2996 RMK A01 T02151097  RH  011%=      5-min Rain = 0
KBWS 231832Z 24019G24KT 22/M10 A2996 RMK A01 T02151098  RH  011%=      5-min Rain = 0
KBWS 231833Z 23017KT 21/M10 A2996 RMK A01 T02141096  RH  012%=      5-min Rain = 0
KBWS 231834Z 24019KT 22/M10 A2996 RMK A01 T02151095  RH  012%=      5-min Rain = 0
KBWS 231835Z 24022KT 22/M10 A2995 RMK A01 T02161096  RH  011%=      5-min Rain = 0
KBWS 231836Z 23018KT 22/M10 A2995 RMK A01 T02151097  RH  011%=      5-min Rain = 0
KBWS 231837Z 21019G25KT 22/M09 A2996 RMK A01 T02161092  RH  012%=      5-min Rain = 0
KBWS 231838Z 21023G29KT 22/M09 A2996 RMK A01 T02181091  RH  012%=      5-min Rain = 0
KBWS 231839Z 21023G28KT 22/M10 A2996 RMK A01 T02181095  RH  011%=      5-min Rain = 0
KBWS 231840Z 23020G26KT 22/M10 A2996 RMK A01 T02171095  RH  012%=      5-min Rain = 0
KBWS 231841Z 23019G25KT 22/M09 A2995 RMK A01 T02161094  RH  012%=      5-min Rain = 0
KBWS 231842Z 23020KT 22/M10 A2995 RMK A01 T02161095  RH  012%=      5-min Rain = 0
KBWS 231843Z 22020G25KT 22/M10 A2995 RMK A01 T02151095  RH  012%=      5-min Rain = 0
KBWS 231844Z 22019G27KT 22/M09 A2995 RMK A01 T02151093  RH  012%=      5-min Rain = 0
KBWS 231845Z 23016G23KT 22/M09 A2995 RMK A01 T02171092  RH  012%=      5-min Rain = 0
KBWS 231846Z 22020G26KT 22/M10 A2995 RMK A01 T02171095  RH  012%=      5-min Rain = 0
KBWS 231847Z 22019G25KT 22/M10 A2995 RMK A01 T02151097  RH  011%=      5-min Rain = 0
KBWS 231848Z 21020KT 21/M09 A2995 RMK A01 T02141094  RH  012%=      5-min Rain = 0
KBWS 231849Z 22021G26KT 22/M09 A2995 RMK A01 T02151094  RH  012%=      5-min Rain = 0
KBWS 231850Z 22019KT 22/M10 A2995 RMK A01 T02151096  RH  012%=      5-min Rain = 0
KBWS 231851Z 23017KT 22/M09 A2995 RMK A01 T02151094  RH  012%=      5-min Rain = 0
KBWS 231852Z 22017G23KT 22/M09 A2995 RMK A01 T02151093  RH  012%=      5-min Rain = 0
KBWS 231853Z 22019G25KT 22/M09 A2995 RMK A01 T02171089  RH  012%=      5-min Rain = 0
KBWS 231854Z 22017G25KT 22/M09 A2994 RMK A01 T02201090  RH  012%=      5-min Rain = 0
KBWS 231855Z 22019KT 22/M09 A2994 RMK A01 T02201093  RH  011%=      5-min Rain = 0
KBWS 231856Z 22021KT 22/M09 A2994 RMK A01 T02191093  RH  012%=      5-min Rain = 0
KBWS 231857Z 22020KT 22/M10 A2994 RMK A01 T02181095  RH  011%=      5-min Rain = 0
KBWS 231858Z 21018KT 22/M09 A2994 RMK A01 T02181093  RH  012%=      5-min Rain = 0
KBWS 231859Z 21020G26KT 22/M09 A2994 RMK A01 T02191089  RH  012%=      5-min Rain = 0
KBWS 231900Z 21018G23KT 22/M09 A2994 RMK A01 T02201092  RH  012%=      5-min Rain = 0
KBWS 231901Z 20021G28KT 22/M09 A2994 RMK A01 T02201088  RH  012%=      5-min Rain = 0
KBWS 231902Z 22021G27KT 22/M09 A2994 RMK A01 T02221090  RH  012%=      5-min Rain = 0
KBWS 231903Z 22021G27KT 22/M09 A2994 RMK A01 T02221094  RH  011%=      5-min Rain = 0
KBWS 231904Z 22020KT 22/M09 A2994 RMK A01 T02201094  RH  011%=      5-min Rain = 0
KBWS 231905Z 21022G30KT 22/M09 A2994 RMK A01 T02201093  RH  012%=      5-min Rain = 0
KBWS 231906Z 21018G24KT 22/M10 A2994 RMK A01 T02201095  RH  011%=      5-min Rain = 0
KBWS 231907Z 21019G24KT 22/M09 A2993 RMK A01 T02201090  RH  012%=      5-min Rain = 0
KBWS 231908Z 22022G28KT 22/M09 A2993 RMK A01 T02221091  RH  012%=      5-min Rain = 0
KBWS 231909Z 21022G27KT 22/M09 A2993 RMK A01 T02231094  RH  011%=      5-min Rain = 0
KBWS 231910Z 21020G25KT 22/M10 A2993 RMK A01 T02241098  RH  011%=      5-min Rain = 0
KBWS 231911Z 22016G21KT 22/M09 A2993 RMK A01 T02231091  RH  011%=      5-min Rain = 0
KBWS 231912Z 21018G23KT 23/M09 A2993 RMK A01 T02271090  RH  011%=      5-min Rain = 0
KBWS 231913Z 21022G28KT 23/M09 A2993 RMK A01 T02291087  RH  011%=      5-min Rain = 0
KBWS 231914Z 21021G26KT 23/M09 A2993 RMK A01 T02291092  RH  011%=      5-min Rain = 0
KBWS 231915Z 20019KT 23/M09 A2993 RMK A01 T02271093  RH  011%=      5-min Rain = 0
KBWS 231916Z 21016KT 23/M09 A2992 RMK A01 T02251091  RH  011%=      5-min Rain = 0
KBWS 231917Z 22021G27KT 23/M09 A2992 RMK A01 T02261091  RH  011%=      5-min Rain = 0
KBWS 231918Z 23020G26KT 23/M09 A2992 RMK A01 T02281094  RH  011%=      5-min Rain = 0
KBWS 231919Z 23018G24KT 23/M10 A2992 RMK A01 T02281095  RH  011%=      5-min Rain = 0
KBWS 231920Z 22016KT 23/M10 A2992 RMK A01 T02281095  RH  011%=      5-min Rain = 0
KBWS 231921Z 21020G26KT 23/M10 A2992 RMK A01 T02271095  RH  011%=      5-min Rain = 0
KBWS 231922Z 21019KT 23/M09 A2992 RMK A01 T02271091  RH  011%=      5-min Rain = 0
KBWS 231923Z 22023KT 23/M10 A2992 RMK A01 T02281096  RH  011%=      5-min Rain = 0
KBWS 231924Z 21024G29KT 23/M10 A2992 RMK A01 T02271097  RH  011%=      5-min Rain = 0
KBWS 231925Z 21022G28KT 23/M10 A2991 RMK A01 T02281097  RH  011%=      5-min Rain = 0
KBWS 231926Z 22023G28KT 23/M10 A2991 RMK A01 T02301096  RH  011%=      5-min Rain = 0
KBWS 231927Z 22021KT 23/M10 A2991 RMK A01 T02271102  RH  010%=      5-min Rain = 0
KBWS 231928Z 22020KT 23/M10 A2991 RMK A01 T02251100  RH  010%=      5-min Rain = 0
KBWS 231929Z 22022G28KT 23/M10 A2991 RMK A01 T02261098  RH  011%=      5-min Rain = 0
KBWS 231930Z 23024G29KT 23/M10 A299 RMK A01 T02291103  RH  010%=      5-min Rain = 0
KBWS 231931Z 22020KT 23/M11 A2991 RMK A01 T02281108  RH  010%=      5-min Rain = 0
KBWS 231932Z 24020G29KT 23/M10 A299 RMK A01 T02281100  RH  010%=      5-min Rain = 0
KBWS 231933Z 24021G26KT 23/M10 A299 RMK A01 T02301100  RH  010%=      5-min Rain = 0
KBWS 231934Z 23021G26KT 23/M10 A299 RMK A01 T02301099  RH  010%=      5-min Rain = 0
KBWS 231935Z 23022KT 23/M10 A299 RMK A01 T02311101  RH  010%=      5-min Rain = 0
KBWS 231936Z 24018G25KT 23/M10 A299 RMK A01 T02301099  RH  010%=      5-min Rain = 0
KBWS 231937Z 23020G26KT 23/M10 A299 RMK A01 T02331099  RH  010%=      5-min Rain = 0
KBWS 231938Z 23020G29KT 23/M10 A299 RMK A01 T02341099  RH  010%=      5-min Rain = 0
KBWS 231939Z 23023G28KT 24/M10 A299 RMK A01 T02351102  RH  010%=      5-min Rain = 0
KBWS 231940Z 23018G24KT 23/M10 A299 RMK A01 T02341104  RH  010%=      5-min Rain = 0
KBWS 231941Z 22021G26KT 23/M10 A299 RMK A01 T02321104  RH  010%=      5-min Rain = 0
KBWS 231942Z 22022G28KT 23/M10 A299 RMK A01 T02331102  RH  010%=      5-min Rain = 0
KBWS 231943Z 22020G26KT 24/M10 A299 RMK A01 T02351101  RH  010%=      5-min Rain = 0
KBWS 231944Z 22019G24KT 23/M10 A2989 RMK A01 T02331103  RH  010%=      5-min Rain = 0
KBWS 231945Z 22025KT 23/M10 A2989 RMK A01 T02311103  RH  010%=      5-min Rain = 0
KBWS 231946Z 22024G29KT 23/M10 A2989 RMK A01 T02311104  RH  010%=      5-min Rain = 0
KBWS 231947Z 22025KT 23/M10 A2989 RMK A01 T02311103  RH  010%=      5-min Rain = 0
KBWS 231948Z 23019G26KT 23/M10 A2989 RMK A01 T02311102  RH  010%=      5-min Rain = 0
KBWS 231949Z 22023G28KT 23/M10 A2989 RMK A01 T02311102  RH  010%=      5-min Rain = 0
KBWS 231950Z 22021G27KT 23/M10 A2989 RMK A01 T02311104  RH  010%=      5-min Rain = 0
KBWS 231951Z 21022G29KT 23/M10 A2989 RMK A01 T02321101  RH  010%=      5-min Rain = 0
KBWS 231952Z 21023G29KT 23/M10 A2989 RMK A01 T02341103  RH  010%=      5-min Rain = 0
KBWS 231953Z 21021G27KT 23/M11 A2989 RMK A01 T02321106  RH  010%=      5-min Rain = 0
KBWS 231954Z 21022G30KT 23/M10 A2989 RMK A01 T02311104  RH  010%=      5-min Rain = 0
KBWS 231955Z 22022G29KT 23/M11 A2988 RMK A01 T02311105  RH  010%=      5-min Rain = 0
KBWS 231956Z 21020G30KT 23/M10 A2988 RMK A01 T02331099  RH  010%=      5-min Rain = 0
KBWS 231957Z 23024G33KT 24/M10 A2988 RMK A01 T02371103  RH  010%=      5-min Rain = 0
KBWS 231958Z 23021G26KT 24/M11 A2988 RMK A01 T02361105  RH  009%=      5-min Rain = 0
KBWS 231959Z 22022G30KT 24/M10 A2988 RMK A01 T02361102  RH  010%=      5-min Rain = 0
KBWS 232000Z 22025KT 24/M11 A2988 RMK A01 T02381105  RH  009%=      5-min Rain = 0
KBWS 232001Z 22022G29KT 24/M11 A2988 RMK A01 T02361108  RH  009%=      5-min Rain = 0
KBWS 232002Z 22020KT 24/M11 A2988 RMK A01 T02351107  RH  009%=      5-min Rain = 0
KBWS 232003Z 22020G25KT 24/M11 A2988 RMK A01 T02371107  RH  009%=      5-min Rain = 0
KBWS 232004Z 22021KT 24/M11 A2988 RMK A01 T02381107  RH  009%=      5-min Rain = 0
KBWS 232005Z 22022G27KT 24/M10 A2988 RMK A01 T02391104  RH  009%=      5-min Rain = 0
KBWS 232006Z 22021G27KT 24/M11 A2988 RMK A01 T02391106  RH  009%=      5-min Rain = 0
KBWS 232007Z 23021G27KT 24/M11 A2987 RMK A01 T02381109  RH  009%=      5-min Rain = 0
KBWS 232008Z 23020G26KT 24/M11 A2987 RMK A01 T02401106  RH  009%=      5-min Rain = 0
KBWS 232009Z 24019KT 24/M11 A2987 RMK A01 T02431106  RH  009%=      5-min Rain = 0
KBWS 232010Z 24019G25KT 24/M11 A2987 RMK A01 T02431107  RH  009%=      5-min Rain = 0
KBWS 232011Z 24016G21KT 24/M11 A2987 RMK A01 T02411107  RH  009%=      5-min Rain = 0
KBWS 232012Z 23020G28KT 24/M10 A2987 RMK A01 T02421104  RH  009%=      5-min Rain = 0
KBWS 232013Z 21023G28KT 24/M11 A2987 RMK A01 T02421105  RH  009%=      5-min Rain = 0
KBWS 232014Z 22020G27KT 24/M11 A2987 RMK A01 T02411107  RH  009%=      5-min Rain = 0
KBWS 232015Z 21019G27KT 24/M11 A2987 RMK A01 T02401107  RH  009%=      5-min Rain = 0
KBWS 232016Z 21021G26KT 24/M11 A2987 RMK A01 T02401108  RH  009%=      5-min Rain = 0
KBWS 232017Z 22023G29KT 24/M11 A2987 RMK A01 T02401110  RH  009%=      5-min Rain = 0
KBWS 232018Z 22025G31KT 24/M11 A2987 RMK A01 T02411111  RH  009%=      5-min Rain = 0
KBWS 232019Z 23022G27KT 24/M11 A2987 RMK A01 T02421111  RH  009%=      5-min Rain = 0
KBWS 232020Z 23019G24KT 24/M11 A2986 RMK A01 T02411113  RH  009%=      5-min Rain = 0
KBWS 232021Z 22017G23KT 24/M11 A2986 RMK A01 T02391111  RH  009%=      5-min Rain = 0
KBWS 232022Z 21024KT 24/M11 A2986 RMK A01 T02411110  RH  009%=      5-min Rain = 0
KBWS 232023Z 22023KT 24/M11 A2986 RMK A01 T02421113  RH  009%=      5-min Rain = 0
KBWS 232024Z 22021G26KT 24/M12 A2986 RMK A01 T02421116  RH  008%=      5-min Rain = 0
KBWS 232025Z 23020G26KT 24/M11 A2986 RMK A01 T02411113  RH  009%=      5-min Rain = 0
KBWS 232026Z 22017G23KT 24/M11 A2986 RMK A01 T02421113  RH  009%=      5-min Rain = 0
KBWS 232027Z 22019G28KT 24/M11 A2986 RMK A01 T02441109  RH  009%=      5-min Rain = 0
KBWS 232028Z 23023G29KT 25/M11 A2986 RMK A01 T02451112  RH  008%=      5-min Rain = 0
KBWS 232029Z 22022G28KT 24/M11 A2986 RMK A01 T02431114  RH  008%=      5-min Rain = 0
KBWS 232030Z 21018G24KT 24/M12 A2986 RMK A01 T02421115  RH  008%=      5-min Rain = 0
KBWS 232031Z 22020G27KT 24/M12 A2986 RMK A01 T02411115  RH  008%=      5-min Rain = 0
KBWS 232032Z 22021G26KT 24/M11 A2986 RMK A01 T02431114  RH  008%=      5-min Rain = 0
KBWS 232033Z 22018G23KT 25/M11 A2986 RMK A01 T02451112  RH  008%=      5-min Rain = 0
KBWS 232034Z 22022G27KT 25/M11 A2986 RMK A01 T02471111  RH  008%=      5-min Rain = 0
KBWS 232035Z 22021G26KT 25/M12 A2985 RMK A01 T02471119  RH  008%=      5-min Rain = 0
KBWS 232036Z 22021G27KT 25/M12 A2985 RMK A01 T02451116  RH  008%=      5-min Rain = 0
KBWS 232037Z 21020G26KT 25/M12 A2985 RMK A01 T02461117  RH  008%=      5-min Rain = 0
KBWS 232038Z 22025G30KT 25/M12 A2985 RMK A01 T02491116  RH  008%=      5-min Rain = 0
KBWS 232039Z 23023G29KT 25/M12 A2985 RMK A01 T02471122  RH  008%=      5-min Rain = 0
KBWS 232040Z 24022G27KT 25/M12 A2985 RMK A01 T02461122  RH  008%=      5-min Rain = 0
KBWS 232041Z 22019G24KT 25/M12 A2985 RMK A01 T02451123  RH  008%=      5-min Rain = 0
KBWS 232042Z 21022G27KT 25/M12 A2985 RMK A01 T02451116  RH  008%=      5-min Rain = 0
KBWS 232043Z 22021KT 25/M12 A2985 RMK A01 T02461120  RH  008%=      5-min Rain = 0
KBWS 232044Z 22018G24KT 25/M12 A2985 RMK A01 T02451120  RH  008%=      5-min Rain = 0
KBWS 232045Z 22022G28KT 25/M12 A2985 RMK A01 T02461116  RH  008%=      5-min Rain = 0
KBWS 232046Z 23022G29KT 25/M12 A2985 RMK A01 T02491116  RH  008%=      5-min Rain = 0
KBWS 232047Z 23022G29KT 25/M12 A2985 RMK A01 T02501122  RH  008%=      5-min Rain = 0
KBWS 232048Z 23022G28KT 25/M13 A2985 RMK A01 T02481125  RH  007%=      5-min Rain = 0
KBWS 232049Z 22022G29KT 25/M12 A2985 RMK A01 T02461121  RH  008%=      5-min Rain = 0
KBWS 232050Z 23022G28KT 25/M12 A2985 RMK A01 T02461118  RH  008%=      5-min Rain = 0
KBWS 232051Z 23019KT 25/M12 A2985 RMK A01 T02451122  RH  008%=      5-min Rain = 0
KBWS 232052Z 23019G26KT 24/M12 A2985 RMK A01 T02441121  RH  008%=      5-min Rain = 0
KBWS 232053Z 22024G31KT 25/M12 A2985 RMK A01 T02461119  RH  008%=      5-min Rain = 0
KBWS 232054Z 23021KT 25/M12 A2985 RMK A01 T02471121  RH  008%=      5-min Rain = 0
KBWS 232055Z 23021G28KT 25/M12 A2984 RMK A01 T02461121  RH  008%=      5-min Rain = 0
KBWS 232056Z 22022KT 25/M12 A2985 RMK A01 T02471123  RH  008%=      5-min Rain = 0
KBWS 232057Z 22019G25KT 25/M12 A2985 RMK A01 T02471122  RH  008%=      5-min Rain = 0
KBWS 232058Z 22019G26KT 25/M12 A2985 RMK A01 T02491117  RH  008%=      5-min Rain = 0
KBWS 232059Z 22023G30KT 25/M12 A2985 RMK A01 T02521120  RH  008%=      5-min Rain = 0
KBWS 232100Z 23021G28KT 25/M13 A2984 RMK A01 T02501125  RH  007%=      5-min Rain = 0
KBWS 232101Z 24019G24KT 25/M12 A2984 RMK A01 T02491124  RH  008%=      5-min Rain = 0
KBWS 232102Z 23023G30KT 25/M13 A2984 RMK A01 T02491125  RH  007%=      5-min Rain = 0
KBWS 232103Z 22020G28KT 25/M13 A2984 RMK A01 T02481127  RH  007%=      5-min Rain = 0
KBWS 232104Z 22024G29KT 25/M13 A2984 RMK A01 T02481129  RH  007%=      5-min Rain = 0
KBWS 232105Z 23019G24KT 25/M13 A2984 RMK A01 T02491129  RH  007%=      5-min Rain = 0
KBWS 232106Z 23019G25KT 25/M13 A2984 RMK A01 T02511127  RH  007%=      5-min Rain = 0
KBWS 232107Z 22021G28KT 25/M13 A2984 RMK A01 T02521127  RH  007%=      5-min Rain = 0
KBWS 232108Z 22020G29KT 25/M13 A2984 RMK A01 T02521125  RH  007%=      5-min Rain = 0
KBWS 232109Z 22024G30KT 25/M13 A2984 RMK A01 T02521126  RH  007%=      5-min Rain = 0
KBWS 232110Z 22022G29KT 25/M13 A2984 RMK A01 T02501129  RH  007%=      5-min Rain = 0
KBWS 232111Z 21025G30KT 25/M13 A2984 RMK A01 T02491125  RH  007%=      5-min Rain = 0
KBWS 232112Z 22025G30KT 25/M13 A2984 RMK A01 T02501130  RH  007%=      5-min Rain = 0
KBWS 232113Z 22022G30KT 25/M13 A2984 RMK A01 T02501129  RH  007%=      5-min Rain = 0
KBWS 232114Z 23020G27KT 25/M13 A2984 RMK A01 T02501129  RH  007%=      5-min Rain = 0
KBWS 232115Z 23019G26KT 25/M13 A2984 RMK A01 T02521131  RH  007%=      5-min Rain = 0
KBWS 232116Z 23017G23KT 25/M13 A2984 RMK A01 T02531128  RH  007%=      5-min Rain = 0
KBWS 232117Z 23020G26KT 26/M13 A2984 RMK A01 T02551129  RH  007%=      5-min Rain = 0
KBWS 232118Z 23020G26KT 25/M13 A2984 RMK A01 T02531132  RH  007%=      5-min Rain = 0
KBWS 232119Z 23023G30KT 25/M13 A2984 RMK A01 T02511132  RH  007%=      5-min Rain = 0
KBWS 232120Z 24022G27KT 25/M14 A2984 RMK A01 T02501135  RH  007%=      5-min Rain = 0
KBWS 232121Z 24025G30KT 25/M13 A2984 RMK A01 T02491133  RH  007%=      5-min Rain = 0
KBWS 232122Z 24023G29KT 25/M13 A2984 RMK A01 T02501134  RH  007%=      5-min Rain = 0
KBWS 232123Z 23019G24KT 25/M13 A2984 RMK A01 T02501131  RH  007%=      5-min Rain = 0
KBWS 232124Z 23016KT 25/M13 A2984 RMK A01 T02511128  RH  007%=      5-min Rain = 0
KBWS 232125Z 24020G26KT 25/M12 A2983 RMK A01 T02541124  RH  007%=      5-min Rain = 0
KBWS 232126Z 23018G23KT 26/M13 A2983 RMK A01 T02551130  RH  007%=      5-min Rain = 0
KBWS 232127Z 23018G24KT 25/M13 A2983 RMK A01 T02531128  RH  007%=      5-min Rain = 0
KBWS 232128Z 24019G26KT 25/M13 A2983 RMK A01 T02531128  RH  007%=      5-min Rain = 0
KBWS 232129Z 24021G28KT 25/M13 A2983 RMK A01 T02541134  RH  007%=      5-min Rain = 0
KBWS 232130Z 23025G31KT 25/M14 A2983 RMK A01 T02531135  RH  007%=      5-min Rain = 0
KBWS 232131Z 23021G28KT 25/M14 A2983 RMK A01 T02521137  RH  007%=      5-min Rain = 0
KBWS 232132Z 23019KT 25/M14 A2983 RMK A01 T02511136  RH  007%=      5-min Rain = 0
KBWS 232133Z 23016G22KT 25/M14 A2983 RMK A01 T02521135  RH  007%=      5-min Rain = 0
KBWS 232134Z 23019G25KT 25/M13 A2983 RMK A01 T02541130  RH  007%=      5-min Rain = 0
KBWS 232135Z 22023G29KT 26/M13 A2983 RMK A01 T02551133  RH  007%=      5-min Rain = 0
KBWS 232136Z 24019G25KT 25/M13 A2983 RMK A01 T02541132  RH  007%=      5-min Rain = 0
KBWS 232137Z 23021G28KT 26/M13 A2983 RMK A01 T02551133  RH  007%=      5-min Rain = 0
KBWS 232138Z 23021G27KT 25/M14 A2983 RMK A01 T02541137  RH  007%=      5-min Rain = 0
KBWS 232139Z 23020G26KT 25/M14 A2983 RMK A01 T02531139  RH  007%=      5-min Rain = 0
KBWS 232140Z 23022G27KT 25/M14 A2983 RMK A01 T02511138  RH  007%=      5-min Rain = 0
KBWS 232141Z 23025G30KT 25/M14 A2983 RMK A01 T02511135  RH  007%=      5-min Rain = 0
KBWS 232142Z 23024G30KT 25/M14 A2983 RMK A01 T02521138  RH  007%=      5-min Rain = 0
KBWS 232143Z 24019G25KT 25/M14 A2983 RMK A01 T02501139  RH  007%=      5-min Rain = 0
KBWS 232144Z 23018G23KT 25/M14 A2983 RMK A01 T02501135  RH  007%=      5-min Rain = 0
KBWS 232145Z 23020G26KT 25/M14 A2983 RMK A01 T02521135  RH  007%=      5-min Rain = 0
KBWS 232146Z 23018G29KT 25/M14 A2982 RMK A01 T02521135  RH  007%=      5-min Rain = 0
KBWS 232147Z 23022G30KT 25/M13 A2982 RMK A01 T02541134  RH  007%=      5-min Rain = 0
KBWS 232148Z 23018G23KT 25/M14 A2983 RMK A01 T02541135  RH  007%=      5-min Rain = 0
KBWS 232149Z 23019G31KT 26/M13 A2983 RMK A01 T02551131  RH  007%=      5-min Rain = 0
KBWS 232150Z 23024G30KT 26/M13 A2982 RMK A01 T02551133  RH  007%=      5-min Rain = 0
KBWS 232151Z 23022KT 25/M14 A2983 RMK A01 T02521140  RH  006%=      5-min Rain = 0
KBWS 232152Z 24019G25KT 25/M13 A2983 RMK A01 T02511134  RH  007%=      5-min Rain = 0
KBWS 232153Z 23019G25KT 25/M14 A2983 RMK A01 T02521136  RH  007%=      5-min Rain = 0
KBWS 232154Z 22019G24KT 25/M14 A2983 RMK A01 T02511137  RH  007%=      5-min Rain = 0
KBWS 232155Z 22019G28KT 25/M13 A2983 RMK A01 T02511134  RH  007%=      5-min Rain = 0
KBWS 232156Z 23023G30KT 25/M13 A2983 RMK A01 T02521133  RH  007%=      5-min Rain = 0
KBWS 232157Z 23024G30KT 25/M14 A2983 RMK A01 T02521137  RH  007%=      5-min Rain = 0
KBWS 232158Z 23020G25KT 25/M14 A2983 RMK A01 T02501138  RH  007%=      5-min Rain = 0
KBWS 232159Z 23021G26KT 25/M14 A2983 RMK A01 T02501138  RH  007%=      5-min Rain = 0
KBWS 232200Z 23021G27KT 25/M14 A2983 RMK A01 T02491136  RH  007%=      5-min Rain = 0
KBWS 232201Z 23022KT 25/M14 A2983 RMK A01 T02491139  RH  007%=      5-min Rain = 0
KBWS 232202Z 24021G26KT 25/M14 A2983 RMK A01 T02491138  RH  007%=      5-min Rain = 0
KBWS 232203Z 23024G30KT 25/M13 A2983 RMK A01 T02491134  RH  007%=      5-min Rain = 0
KBWS 232204Z 23026G31KT 25/M14 A2982 RMK A01 T02501136  RH  007%=      5-min Rain = 0
KBWS 232205Z 23022G30KT 25/M14 A2983 RMK A01 T02491142  RH  006%=      5-min Rain = 0
KBWS 232206Z 23018KT 25/M14 A2983 RMK A01 T02481138  RH  007%=      5-min Rain = 0
KBWS 232207Z 23023G30KT 25/M13 A2983 RMK A01 T02491134  RH  007%=      5-min Rain = 0
KBWS 232208Z 23022G29KT 25/M14 A2983 RMK A01 T02501135  RH  007%=      5-min Rain = 0
KBWS 232209Z 23022G29KT 25/M13 A2983 RMK A01 T02511134  RH  007%=      5-min Rain = 0
KBWS 232210Z 23018G26KT 25/M13 A2983 RMK A01 T02511134  RH  007%=      5-min Rain = 0
KBWS 232211Z 23024G29KT 25/M14 A2982 RMK A01 T02511135  RH  007%=      5-min Rain = 0
KBWS 232212Z 24021G28KT 25/M14 A2983 RMK A01 T02511137  RH  007%=      5-min Rain = 0
KBWS 232213Z 23024KT 25/M14 A2982 RMK A01 T02511139  RH  007%=      5-min Rain = 0
KBWS 232214Z 23023G29KT 25/M14 A2982 RMK A01 T02501139  RH  007%=      5-min Rain = 0
KBWS 232215Z 23022G28KT 25/M14 A2982 RMK A01 T02501137  RH  007%=      5-min Rain = 0
KBWS 232216Z 23024G30KT 25/M14 A2982 RMK A01 T02501138  RH  007%=      5-min Rain = 0
KBWS 232217Z 23024G30KT 25/M14 A2982 RMK A01 T02501139  RH  007%=      5-min Rain = 0
KBWS 232218Z 23020G28KT 25/M14 A2982 RMK A01 T02491140  RH  007%=      5-min Rain = 0
KBWS 232219Z 23023G29KT 25/M14 A2982 RMK A01 T02491138  RH  007%=      5-min Rain = 0
KBWS 232220Z 23021G28KT 25/M14 A2982 RMK A01 T02491139  RH  007%=      5-min Rain = 0
KBWS 232221Z 24025G30KT 25/M14 A2982 RMK A01 T02501141  RH  007%=      5-min Rain = 0
KBWS 232222Z 23023G28KT 25/M14 A2982 RMK A01 T02491141  RH  007%=      5-min Rain = 0
KBWS 232223Z 23021G28KT 25/M14 A2982 RMK A01 T02491140  RH  007%=      5-min Rain = 0
KBWS 232224Z 23021G29KT 25/M14 A2982 RMK A01 T02491139  RH  007%=      5-min Rain = 0
KBWS 232225Z 23022G30KT 25/M14 A2982 RMK A01 T02491140  RH  007%=      5-min Rain = 0
KBWS 232226Z 23020G28KT 25/M14 A2982 RMK A01 T02501137  RH  007%=      5-min Rain = 0
KBWS 232227Z 22021G27KT 25/M14 A2982 RMK A01 T02501135  RH  007%=      5-min Rain = 0
KBWS 232228Z 23020G26KT 25/M14 A2982 RMK A01 T02511136  RH  007%=      5-min Rain = 0
KBWS 232229Z 23023G29KT 25/M14 A2982 RMK A01 T02511138  RH  007%=      5-min Rain = 0
KBWS 232230Z 23024G30KT 25/M14 A2982 RMK A01 T02491141  RH  007%=      5-min Rain = 0
KBWS 232231Z 23022G30KT 25/M14 A2982 RMK A01 T02481141  RH  007%=      5-min Rain = 0
KBWS 232232Z 23020G26KT 25/M14 A2982 RMK A01 T02471138  RH  007%=      5-min Rain = 0
KBWS 232233Z 23020G26KT 25/M14 A2982 RMK A01 T02481136  RH  007%=      5-min Rain = 0
KBWS 232234Z 22020G28KT 25/M13 A2982 RMK A01 T02481133  RH  007%=      5-min Rain = 0
KBWS 232235Z 21024G30KT 25/M14 A2982 RMK A01 T02491136  RH  007%=      5-min Rain = 0
KBWS 232236Z 22025G30KT 25/M14 A2982 RMK A01 T02491138  RH  007%=      5-min Rain = 0
KBWS 232237Z 23018G25KT 25/M14 A2982 RMK A01 T02471140  RH  007%=      5-min Rain = 0
KBWS 232238Z 23021G27KT 25/M13 A2982 RMK A01 T02481133  RH  007%=      5-min Rain = 0
KBWS 232239Z 23021G27KT 25/M14 A2982 RMK A01 T02491137  RH  007%=      5-min Rain = 0
KBWS 232240Z 23020G27KT 25/M14 A2982 RMK A01 T02491138  RH  007%=      5-min Rain = 0
KBWS 232241Z 23022G29KT 25/M14 A2982 RMK A01 T02481137  RH  007%=      5-min Rain = 0
KBWS 232242Z 23023G30KT 25/M14 A2982 RMK A01 T02491140  RH  007%=      5-min Rain = 0
KBWS 232243Z 23022G28KT 25/M14 A2982 RMK A01 T02491144  RH  006%=      5-min Rain = 0
KBWS 232244Z 24022G28KT 25/M14 A2982 RMK A01 T02491143  RH  006%=      5-min Rain = 0
KBWS 232245Z 23024G30KT 25/M14 A2982 RMK A01 T02491143  RH  006%=      5-min Rain = 0
KBWS 232246Z 24021G30KT 25/M14 A2982 RMK A01 T02481141  RH  007%=      5-min Rain = 0
KBWS 232247Z 23022G28KT 25/M14 A2982 RMK A01 T02481141  RH  007%=      5-min Rain = 0
KBWS 232248Z 23020KT 25/M14 A2982 RMK A01 T02471142  RH  007%=      5-min Rain = 0
KBWS 232249Z 23020G25KT 25/M14 A2982 RMK A01 T02471140  RH  007%=      5-min Rain = 0
KBWS 232250Z 23021G28KT 25/M14 A2982 RMK A01 T02471139  RH  007%=      5-min Rain = 0
KBWS 232251Z 23016KT 25/M14 A2982 RMK A01 T02471136  RH  007%=      5-min Rain = 0
KBWS 232252Z 23019G26KT 25/M13 A2982 RMK A01 T02471134  RH  007%=      5-min Rain = 0
KBWS 232253Z 22020KT 25/M14 A2982 RMK A01 T02471136  RH  007%=      5-min Rain = 0
KBWS 232254Z 22018G25KT 25/M14 A2982 RMK A01 T02471136  RH  007%=      5-min Rain = 0
KBWS 232255Z 22020G27KT 25/M14 A2982 RMK A01 T02461136  RH  007%=      5-min Rain = 0
KBWS 232256Z 22019G25KT 25/M14 A2982 RMK A01 T02461135  RH  007%=      5-min Rain = 0
KBWS 232257Z 23016G21KT 25/M13 A2982 RMK A01 T02461132  RH  007%=      5-min Rain = 0
KBWS 232258Z 23021G26KT 25/M13 A2982 RMK A01 T02471133  RH  007%=      5-min Rain = 0
KBWS 232259Z 23018KT 25/M13 A2982 RMK A01 T02471134  RH  007%=      5-min Rain = 0
KBWS 232300Z 22019G28KT 25/M13 A2982 RMK A01 T02471131  RH  007%=      5-min Rain = 0
KBWS 232301Z 22022G28KT 25/M13 A2981 RMK A01 T02471130  RH  007%=      5-min Rain = 0
KBWS 232302Z 22023G29KT 25/M13 A2981 RMK A01 T02461132  RH  007%=      5-min Rain = 0
KBWS 232303Z 23022G27KT 25/M13 A2981 RMK A01 T02451132  RH  007%=      5-min Rain = 0
KBWS 232304Z 23021G27KT 24/M13 A2981 RMK A01 T02441129  RH  007%=      5-min Rain = 0
KBWS 232305Z 23021G28KT 24/M13 A2981 RMK A01 T02441130  RH  007%=      5-min Rain = 0
KBWS 232306Z 23022G28KT 24/M13 A2981 RMK A01 T02431130  RH  007%=      5-min Rain = 0
KBWS 232307Z 23023G30KT 24/M13 A2981 RMK A01 T02431129  RH  007%=      5-min Rain = 0
KBWS 232308Z 23023G28KT 24/M13 A2981 RMK A01 T02431129  RH  007%=      5-min Rain = 0
KBWS 232309Z 23023G29KT 24/M13 A2981 RMK A01 T02431128  RH  008%=      5-min Rain = 0
KBWS 232310Z 22021KT 24/M13 A2981 RMK A01 T02431128  RH  008%=      5-min Rain = 0
KBWS 232311Z 22022G29KT 24/M13 A2981 RMK A01 T02431127  RH  008%=      5-min Rain = 0
KBWS 232312Z 23020G25KT 24/M13 A2981 RMK A01 T02431126  RH  008%=      5-min Rain = 0
KBWS 232313Z 22018G24KT 24/M12 A2981 RMK A01 T02431124  RH  008%=      5-min Rain = 0
KBWS 232314Z 21019G26KT 24/M12 A2981 RMK A01 T02421120  RH  008%=      5-min Rain = 0
KBWS 232315Z 22023G29KT 24/M12 A2981 RMK A01 T02421123  RH  008%=      5-min Rain = 0
KBWS 232316Z 22024KT 24/M13 A2981 RMK A01 T02421125  RH  008%=      5-min Rain = 0
KBWS 232317Z 22023G30KT 24/M12 A2981 RMK A01 T02411124  RH  008%=      5-min Rain = 0
KBWS 232318Z 22021G27KT 24/M12 A2981 RMK A01 T02411123  RH  008%=      5-min Rain = 0
KBWS 232319Z 22021G27KT 24/M12 A2981 RMK A01 T02411121  RH  008%=      5-min Rain = 0
KBWS 232320Z 22025G30KT 24/M12 A2981 RMK A01 T02411122  RH  008%=      5-min Rain = 0
KBWS 232321Z 22024KT 24/M12 A2981 RMK A01 T02411124  RH  008%=      5-min Rain = 0
KBWS 232322Z 22023KT 24/M12 A2981 RMK A01 T02411124  RH  008%=      5-min Rain = 0
KBWS 232323Z 22022KT 24/M12 A2981 RMK A01 T02411124  RH  008%=      5-min Rain = 0
KBWS 232324Z 22021KT 24/M12 A2981 RMK A01 T02411124  RH  008%=      5-min Rain = 0
KBWS 232325Z 22020G25KT 24/M12 A2981 RMK A01 T02411121  RH  008%=      5-min Rain = 0
KBWS 232326Z 23020G26KT 24/M12 A2981 RMK A01 T02411122  RH  008%=      5-min Rain = 0
KBWS 232327Z 23019G26KT 24/M12 A2981 RMK A01 T02411123  RH  008%=      5-min Rain = 0
KBWS 232328Z 23015G20KT 24/M12 A2981 RMK A01 T02411121  RH  008%=      5-min Rain = 0
KBWS 232329Z 22017G24KT 24/M12 A2981 RMK A01 T02411120  RH  008%=      5-min Rain = 0
KBWS 232330Z 22018G24KT 24/M12 A2981 RMK A01 T02411119  RH  008%=      5-min Rain = 0
KBWS 232331Z 22020KT 24/M12 A2981 RMK A01 T02401119  RH  008%=      5-min Rain = 0
KBWS 232332Z 22022G27KT 24/M12 A2981 RMK A01 T02391122  RH  008%=      5-min Rain = 0
KBWS 232333Z 22021KT 24/M12 A2981 RMK A01 T02391123  RH  008%=      5-min Rain = 0
KBWS 232334Z 22019G25KT 24/M12 A2981 RMK A01 T02391120  RH  008%=      5-min Rain = 0
KBWS 232335Z 23018G23KT 24/M12 A2981 RMK A01 T02391120  RH  008%=      5-min Rain = 0
KBWS 232336Z 23022G29KT 24/M12 A298 RMK A01 T02391121  RH  008%=      5-min Rain = 0
KBWS 232337Z 23020G29KT 24/M12 A298 RMK A01 T02391122  RH  008%=      5-min Rain = 0
KBWS 232338Z 23023G30KT 24/M12 A298 RMK A01 T02381124  RH  008%=      5-min Rain = 0
KBWS 232339Z 23021G30KT 24/M13 A298 RMK A01 T02381126  RH  008%=      5-min Rain = 0
KBWS 232340Z 22023G31KT 24/M13 A298 RMK A01 T02381125  RH  008%=      5-min Rain = 0
KBWS 232341Z 23020G28KT 24/M12 A298 RMK A01 T02371124  RH  008%=      5-min Rain = 0
KBWS 232342Z 23020G30KT 24/M12 A298 RMK A01 T02371122  RH  008%=      5-min Rain = 0
KBWS 232343Z 22024G31KT 24/M12 A298 RMK A01 T02361121  RH  008%=      5-min Rain = 0
KBWS 232344Z 22023G29KT 24/M12 A298 RMK A01 T02351122  RH  008%=      5-min Rain = 0
KBWS 232345Z 22021G27KT 24/M12 A298 RMK A01 T02361123  RH  008%=      5-min Rain = 0
KBWS 232346Z 22021G26KT 24/M12 A298 RMK A01 T02351122  RH  008%=      5-min Rain = 0
KBWS 232347Z 22022G28KT 24/M12 A298 RMK A01 T02351122  RH  008%=      5-min Rain = 0
KBWS 232348Z 22023KT 24/M12 A298 RMK A01 T02351124  RH  008%=      5-min Rain = 0
KBWS 232349Z 23022G29KT 24/M12 A298 RMK A01 T02351124  RH  008%=      5-min Rain = 0
KBWS 232350Z 22023G28KT 24/M12 A298 RMK A01 T02351124  RH  008%=      5-min Rain = 0
KBWS 232351Z 22023KT 24/M13 A298 RMK A01 T02351125  RH  008%=      5-min Rain = 0
KBWS 232352Z 22021G27KT 24/M12 A298 RMK A01 T02351124  RH  008%=      5-min Rain = 0
KBWS 232353Z 22024G29KT 24/M12 A298 RMK A01 T02351124  RH  008%=      5-min Rain = 0
KBWS 232354Z 22021G26KT 24/M13 A298 RMK A01 T02351125  RH  008%=      5-min Rain = 0
KBWS 232355Z 22021G27KT 23/M12 A298 RMK A01 T02341123  RH  008%=      5-min Rain = 0
KBWS 232356Z 22020KT 23/M12 A2981 RMK A01 T02341123  RH  008%=      5-min Rain = 0
KBWS 232357Z 22019G24KT 23/M12 A2981 RMK A01 T02331122  RH  008%=      5-min Rain = 0
KBWS 232358Z 22019G24KT 23/M12 A2981 RMK A01 T02321121  RH  009%=      5-min Rain = 0
KBWS 232359Z 22020KT 23/M12 A2981 RMK A01 T02311121  RH  009%=      5-min Rain = 0
KBWS 240000Z 22020KT 23/M12 A2981 RMK A01 T02311123  RH  008%=      5-min Rain = 0
KBWS 240001Z 22017G23KT 23/M12 A2981 RMK A01 T02311122  RH  008%=      5-min Rain = 0
KBWS 240002Z 22018KT 23/M12 A2981 RMK A01 T02301121  RH  009%=      5-min Rain = 0
KBWS 240003Z 22019KT 23/M12 A2981 RMK A01 T02291122  RH  009%=      5-min Rain = 0
KBWS 240004Z 22018KT 23/M12 A2981 RMK A01 T02291121  RH  009%=      5-min Rain = 0
KBWS 240005Z 22019KT 23/M12 A2981 RMK A01 T02281121  RH  009%=      5-min Rain = 0
KBWS 240006Z 22019KT 23/M12 A2981 RMK A01 T02281123  RH  009%=      5-min Rain = 0
KBWS 240007Z 22018KT 23/M12 A2981 RMK A01 T02281124  RH  009%=      5-min Rain = 0
KBWS 240008Z 22018KT 23/M12 A2981 RMK A01 T02281123  RH  009%=      5-min Rain = 0
KBWS 240009Z 22018KT 23/M12 A2981 RMK A01 T02281123  RH  009%=      5-min Rain = 0
KBWS 240010Z 22017KT 23/M12 A2981 RMK A01 T02271123  RH  009%=      5-min Rain = 0
KBWS 240011Z 22016KT 23/M12 A2981 RMK A01 T02261123  RH  009%=      5-min Rain = 0
KBWS 240012Z 22016G21KT 23/M12 A2981 RMK A01 T02251123  RH  009%=      5-min Rain = 0
KBWS 240013Z 21015KT 22/M12 A2981 RMK A01 T02241122  RH  009%=      5-min Rain = 0
KBWS 240014Z 21015KT 22/M12 A2981 RMK A01 T02231122  RH  009%=      5-min Rain = 0
KBWS 240015Z 21016KT 22/M12 A2981 RMK A01 T02221121  RH  009%=      5-min Rain = 0
KBWS 240016Z 21015KT 22/M12 A2981 RMK A01 T02211122  RH  009%=      5-min Rain = 0
KBWS 240017Z 21014KT 22/M12 A2981 RMK A01 T02211122  RH  009%=      5-min Rain = 0
KBWS 240018Z 21014KT 22/M12 A2981 RMK A01 T02201121  RH  009%=      5-min Rain = 0
KBWS 240019Z 21015KT 22/M12 A2981 RMK A01 T02181120  RH  009%=      5-min Rain = 0
KBWS 240020Z 22016KT 22/M12 A2981 RMK A01 T02171119  RH  010%=      5-min Rain = 0
KBWS 240021Z 22017KT 22/M12 A2981 RMK A01 T02151119  RH  010%=      5-min Rain = 0
KBWS 240022Z 22017KT 22/M12 A2981 RMK A01 T02161120  RH  010%=      5-min Rain = 0
KBWS 240023Z 22017KT 22/M12 A2981 RMK A01 T02161120  RH  009%=      5-min Rain = 0
KBWS 240024Z 22016KT 22/M12 A2981 RMK A01 T02161120  RH  009%=      5-min Rain = 0
KBWS 240025Z 22016KT 22/M12 A2981 RMK A01 T02161120  RH  009%=      5-min Rain = 0
KBWS 240026Z 21015KT 21/M12 A2981 RMK A01 T02141119  RH  010%=      5-min Rain = 0
KBWS 240027Z 21015KT 21/M12 A2981 RMK A01 T02121119  RH  010%=      5-min Rain = 0
KBWS 240028Z 21015G20KT 21/M12 A2981 RMK A01 T02101119  RH  010%=      5-min Rain = 0
KBWS 240029Z 21015KT 21/M12 A2981 RMK A01 T02101119  RH  010%=      5-min Rain = 0
KBWS 240030Z 21016KT 21/M12 A2981 RMK A01 T02101120  RH  010%=      5-min Rain = 0
KBWS 240031Z 21015KT 21/M12 A2981 RMK A01 T02101120  RH  010%=      5-min Rain = 0
KBWS 240032Z 21014KT 21/M12 A2981 RMK A01 T02101120  RH  010%=      5-min Rain = 0
KBWS 240033Z 21014KT 21/M12 A2981 RMK A01 T02091119  RH  010%=      5-min Rain = 0
KBWS 240034Z 21013KT 21/M12 A2981 RMK A01 T02071118  RH  010%=      5-min Rain = 0
KBWS 240035Z 21013KT 21/M12 A2981 RMK A01 T02051118  RH  010%=      5-min Rain = 0
KBWS 240036Z 21013KT 20/M12 A2981 RMK A01 T02021117  RH  011%=      5-min Rain = 0
KBWS 240037Z 21013KT 20/M12 A2981 RMK A01 T02001117  RH  011%=      5-min Rain = 0
KBWS 240038Z 21013KT 20/M12 A2981 RMK A01 T01991116  RH  011%=      5-min Rain = 0
KBWS 240039Z 22013KT 20/M12 A2981 RMK A01 T01981116  RH  011%=      5-min Rain = 0
KBWS 240040Z 22014KT 20/M12 A2981 RMK A01 T01981116  RH  011%=      5-min Rain = 0
KBWS 240041Z 22014KT 20/M12 A2981 RMK A01 T01981116  RH  011%=      5-min Rain = 0
KBWS 240042Z 22014KT 20/M12 A2981 RMK A01 T01971116  RH  011%=      5-min Rain = 0
KBWS 240043Z 22014KT 20/M12 A2981 RMK A01 T01971116  RH  011%=      5-min Rain = 0
KBWS 240044Z 22015KT 20/M12 A2981 RMK A01 T01971117  RH  011%=      5-min Rain = 0
KBWS 240045Z 22015KT 20/M12 A2981 RMK A01 T01971117  RH  011%=      5-min Rain = 0
KBWS 240046Z 22015KT 20/M12 A2981 RMK A01 T01981117  RH  011%=      5-min Rain = 0
KBWS 240047Z 22014KT 20/M12 A2981 RMK A01 T01971117  RH  011%=      5-min Rain = 0
KBWS 240048Z 22014KT 20/M12 A2981 RMK A01 T01961117  RH  011%=      5-min Rain = 0
KBWS 240049Z 22013KT 20/M12 A2981 RMK A01 T01951117  RH  011%=      5-min Rain = 0
KBWS 240050Z 21014KT 19/M12 A2981 RMK A01 T01941117  RH  011%=      5-min Rain = 0
KBWS 240051Z 22013KT 19/M12 A2981 RMK A01 T01931117  RH  011%=      5-min Rain = 0
KBWS 240052Z 21013KT 19/M12 A2981 RMK A01 T01911116  RH  011%=      5-min Rain = 0
KBWS 240053Z 21013KT 19/M12 A2981 RMK A01 T01891116  RH  012%=      5-min Rain = 0
KBWS 240054Z 21012KT 19/M12 A2981 RMK A01 T01881116  RH  012%=      5-min Rain = 0
KBWS 240055Z 22012KT 19/M12 A2981 RMK A01 T01871116  RH  012%=      5-min Rain = 0
KBWS 240056Z 22012KT 19/M12 A2981 RMK A01 T01861116  RH  012%=      5-min Rain = 0
KBWS 240057Z 22012KT 19/M12 A2981 RMK A01 T01861116  RH  012%=      5-min Rain = 0
KBWS 240058Z 22012KT 19/M12 A2982 RMK A01 T01851116  RH  012%=      5-min Rain = 0
KBWS 240059Z 22012KT 19/M12 A2982 RMK A01 T01851116  RH  012%=      5-min Rain = 0
KBWS 240100Z 22013KT 19/M12 A2982 RMK A01 T01851116  RH  012%=      5-min Rain = 0
KBWS 240101Z 22012KT 19/M12 A2982 RMK A01 T01851116  RH  012%=      5-min Rain = 0
KBWS 240102Z 22012KT 19/M12 A2982 RMK A01 T01851116  RH  012%=      5-min Rain = 0
KBWS 240103Z 22013KT 18/M12 A2982 RMK A01 T01841116  RH  012%=      5-min Rain = 0
KBWS 240104Z 23011KT 18/M12 A2982 RMK A01 T01841116  RH  012%=      5-min Rain = 0
KBWS 240105Z 23010KT 18/M11 A2982 RMK A01 T01821114  RH  012%=      5-min Rain = 0
KBWS 240106Z 23011KT 18/M11 A2982 RMK A01 T01781114  RH  013%=      5-min Rain = 0
KBWS 240107Z 23010KT 18/M11 A2982 RMK A01 T01771114  RH  013%=      5-min Rain = 0
KBWS 240108Z 23010KT 18/M11 A2982 RMK A01 T01761114  RH  013%=      5-min Rain = 0
KBWS 240109Z 23009KT 18/M11 A2982 RMK A01 T01751114  RH  013%=      5-min Rain = 0
KBWS 240110Z 23010KT 17/M11 A2982 RMK A01 T01741114  RH  013%=      5-min Rain = 0
KBWS 240111Z 23010KT 17/M11 A2982 RMK A01 T01731114  RH  013%=      5-min Rain = 0
KBWS 240112Z 23009KT 17/M11 A2982 RMK A01 T01721114  RH  013%=      5-min Rain = 0
KBWS 240113Z 23010KT 17/M11 A2982 RMK A01 T01711114  RH  013%=      5-min Rain = 0
KBWS 240114Z 23010KT 17/M11 A2982 RMK A01 T01711114  RH  013%=      5-min Rain = 0
KBWS 240115Z 23009KT 17/M11 A2982 RMK A01 T01691113  RH  013%=      5-min Rain = 0
KBWS 240116Z 23009KT 17/M11 A2982 RMK A01 T01681113  RH  014%=      5-min Rain = 0
KBWS 240117Z 23010KT 17/M11 A2982 RMK A01 T01661113  RH  014%=      5-min Rain = 0
KBWS 240118Z 23010KT 17/M11 A2983 RMK A01 T01651112  RH  014%=      5-min Rain = 0
KBWS 240119Z 23010KT 16/M11 A2983 RMK A01 T01631112  RH  014%=      5-min Rain = 0
KBWS 240120Z 23009KT 16/M11 A2983 RMK A01 T01631112  RH  014%=      5-min Rain = 0
KBWS 240121Z 23009KT 16/M11 A2983 RMK A01 T01621112  RH  014%=      5-min Rain = 0
KBWS 240122Z 23009KT 16/M11 A2983 RMK A01 T01611112  RH  014%=      5-min Rain = 0
KBWS 240123Z 22010KT 16/M11 A2983 RMK A01 T01611112  RH  014%=      5-min Rain = 0
KBWS 240124Z 22009KT 16/M11 A2983 RMK A01 T01601112  RH  014%=      5-min Rain = 0
KBWS 240125Z 22010KT 16/M11 A2983 RMK A01 T01591111  RH  015%=      5-min Rain = 0
KBWS 240126Z 22009KT 16/M11 A2983 RMK A01 T01581111  RH  015%=      5-min Rain = 0
KBWS 240127Z 22009KT 16/M11 A2983 RMK A01 T01571111  RH  015%=      5-min Rain = 0
KBWS 240128Z 22009KT 16/M11 A2983 RMK A01 T01551111  RH  015%=      5-min Rain = 0
KBWS 240129Z 23009KT 15/M11 A2983 RMK A01 T01541111  RH  015%=      5-min Rain = 0
KBWS 240130Z 23008KT 15/M11 A2983 RMK A01 T01531110  RH  015%=      5-min Rain = 0
KBWS 240131Z 23009KT 15/M11 A2983 RMK A01 T01531110  RH  015%=      5-min Rain = 0
KBWS 240132Z 23008KT 15/M11 A2983 RMK A01 T01521110  RH  015%=      5-min Rain = 0
KBWS 240133Z 23009KT 15/M11 A2983 RMK A01 T01521110  RH  015%=      5-min Rain = 0
KBWS 240134Z 23009KT 15/M11 A2983 RMK A01 T01501111  RH  015%=      5-min Rain = 0
KBWS 240135Z 23009KT 15/M11 A2983 RMK A01 T01491111  RH  016%=      5-min Rain = 0
KBWS 240136Z 23009KT 15/M11 A2983 RMK A01 T01481112  RH  015%=      5-min Rain = 0
KBWS 240137Z 22010KT 15/M11 A2983 RMK A01 T01481113  RH  015%=      5-min Rain = 0
KBWS 240138Z 23009KT 15/M11 A2983 RMK A01 T01491114  RH  015%=      5-min Rain = 0
KBWS 240139Z 23010KT 15/M11 A2983 RMK A01 T01491114  RH  015%=      5-min Rain = 0
KBWS 240140Z 23010KT 15/M11 A2984 RMK A01 T01481113  RH  015%=      5-min Rain = 0
KBWS 240141Z 23010KT 15/M11 A2984 RMK A01 T01451113  RH  016%=      5-min Rain = 0
KBWS 240142Z 23010KT 14/M11 A2984 RMK A01 T01441113  RH  016%=      5-min Rain = 0
KBWS 240143Z 23011KT 14/M12 A2984 RMK A01 T01441115  RH  016%=      5-min Rain = 0
KBWS 240144Z 23011KT 15/M12 A2984 RMK A01 T01461116  RH  015%=      5-min Rain = 0
KBWS 240145Z 22012KT 15/M12 A2984 RMK A01 T01481117  RH  015%=      5-min Rain = 0
KBWS 240146Z 23010KT 15/M12 A2984 RMK A01 T01501117  RH  015%=      5-min Rain = 0
KBWS 240147Z 23010KT 15/M12 A2984 RMK A01 T01481116  RH  015%=      5-min Rain = 0
KBWS 240148Z 22010KT 15/M12 A2984 RMK A01 T01451116  RH  015%=      5-min Rain = 0
KBWS 240149Z 23010KT 14/M12 A2984 RMK A01 T01441116  RH  015%=      5-min Rain = 0
KBWS 240150Z 23010KT 14/M12 A2984 RMK A01 T01441116  RH  015%=      5-min Rain = 0
KBWS 240151Z 23011KT 14/M12 A2984 RMK A01 T01431117  RH  015%=      5-min Rain = 0
KBWS 240152Z 23011KT 14/M12 A2984 RMK A01 T01441118  RH  015%=      5-min Rain = 0
KBWS 240153Z 23011KT 15/M12 A2984 RMK A01 T01461119  RH  015%=      5-min Rain = 0
KBWS 240154Z 23010KT 15/M12 A2984 RMK A01 T01471119  RH  015%=      5-min Rain = 0
KBWS 240155Z 23010KT 15/M12 A2984 RMK A01 T01461118  RH  015%=      5-min Rain = 0
KBWS 240156Z 23010KT 15/M12 A2984 RMK A01 T01451118  RH  015%=      5-min Rain = 0
KBWS 240157Z 23010KT 14/M12 A2984 RMK A01 T01441118  RH  015%=      5-min Rain = 0
KBWS 240158Z 23010KT 14/M12 A2984 RMK A01 T01421118  RH  015%=      5-min Rain = 0
KBWS 240159Z 23010KT 14/M12 A2984 RMK A01 T01411118  RH  015%=      5-min Rain = 0
KBWS 240200Z 23009KT 14/M12 A2984 RMK A01 T01401118  RH  016%=      5-min Rain = 0
KBWS 240201Z 23010KT 14/M12 A2985 RMK A01 T01391117  RH  016%=      5-min Rain = 0
KBWS 240202Z 23010KT 14/M12 A2985 RMK A01 T01391118  RH  016%=      5-min Rain = 0
KBWS 240203Z 24009KT 14/M12 A2985 RMK A01 T01401119  RH  015%=      5-min Rain = 0
KBWS 240204Z 24009KT 14/M12 A2985 RMK A01 T01421121  RH  015%=      5-min Rain = 0
KBWS 240205Z 23010KT 14/M12 A2985 RMK A01 T01431121  RH  015%=      5-min Rain = 0
KBWS 240206Z 23010KT 14/M12 A2985 RMK A01 T01441122  RH  015%=      5-min Rain = 0
KBWS 240207Z 24011KT 15/M12 A2985 RMK A01 T01461122  RH  015%=      5-min Rain = 0
KBWS 240208Z 24010KT 15/M12 A2985 RMK A01 T01461122  RH  015%=      5-min Rain = 0
KBWS 240209Z 24011KT 15/M12 A2985 RMK A01 T01451121  RH  015%=      5-min Rain = 0
KBWS 240210Z 24011KT 14/M12 A2985 RMK A01 T01441121  RH  015%=      5-min Rain = 0
KBWS 240211Z 24011KT 14/M12 A2985 RMK A01 T01421121  RH  015%=      5-min Rain = 0
KBWS 240212Z 24011KT 14/M12 A2985 RMK A01 T01401121  RH  015%=      5-min Rain = 0
KBWS 240213Z 24011KT 14/M12 A2985 RMK A01 T01401121  RH  015%=      5-min Rain = 0
KBWS 240214Z 24011KT 14/M12 A2985 RMK A01 T01411123  RH  015%=      5-min Rain = 0
KBWS 240215Z 24011KT 14/M12 A2985 RMK A01 T01411124  RH  015%=      5-min Rain = 0
KBWS 240216Z 24011KT 14/M12 A2985 RMK A01 T01411124  RH  015%=      5-min Rain = 0
KBWS 240217Z 24011KT 14/M12 A2985 RMK A01 T01401124  RH  015%=      5-min Rain = 0
KBWS 240218Z 24012KT 14/M12 A2985 RMK A01 T01401124  RH  015%=      5-min Rain = 0
KBWS 240219Z 24012KT 14/M12 A2986 RMK A01 T01401124  RH  015%=      5-min Rain = 0
KBWS 240220Z 24012KT 14/M12 A2986 RMK A01 T01401124  RH  015%=      5-min Rain = 0
KBWS 240221Z 24012KT 14/M13 A2986 RMK A01 T01401125  RH  015%=      5-min Rain = 0
KBWS 240222Z 24012KT 14/M13 A2986 RMK A01 T01411125  RH  015%=      5-min Rain = 0
KBWS 240223Z 24012KT 14/M13 A2986 RMK A01 T01431126  RH  014%=      5-min Rain = 0
KBWS 240224Z 24011KT 14/M13 A2986 RMK A01 T01431126  RH  014%=      5-min Rain = 0
KBWS 240225Z 24012KT 14/M13 A2986 RMK A01 T01431126  RH  014%=      5-min Rain = 0
KBWS 240226Z 24012KT 14/M13 A2986 RMK A01 T01421126  RH  014%=      5-min Rain = 0
KBWS 240227Z 24013KT 14/M13 A2986 RMK A01 T01421126  RH  014%=      5-min Rain = 0
KBWS 240228Z 24013KT 14/M13 A2986 RMK A01 T01421126  RH  014%=      5-min Rain = 0
KBWS 240229Z 24013KT 14/M13 A2986 RMK A01 T01431127  RH  014%=      5-min Rain = 0
KBWS 240230Z 24013KT 14/M13 A2986 RMK A01 T01431126  RH  014%=      5-min Rain = 0
KBWS 240231Z 24012KT 14/M13 A2986 RMK A01 T01421126  RH  014%=      5-min Rain = 0
KBWS 240232Z 24013KT 14/M13 A2986 RMK A01 T01421126  RH  014%=      5-min Rain = 0
KBWS 240233Z 24012KT 14/M13 A2986 RMK A01 T01421126  RH  014%=      5-min Rain = 0
KBWS 240234Z 24012KT 14/M13 A2986 RMK A01 T01421126  RH  014%=      5-min Rain = 0
KBWS 240235Z 24012KT 14/M13 A2986 RMK A01 T01411126  RH  014%=      5-min Rain = 0
KBWS 240236Z 24011KT 14/M13 A2986 RMK A01 T01411126  RH  015%=      5-min Rain = 0
KBWS 240237Z 24012KT 14/M13 A2986 RMK A01 T01391126  RH  015%=      5-min Rain = 0
KBWS 240238Z 24011KT 14/M13 A2986 RMK A01 T01381125  RH  015%=      5-min Rain = 0
KBWS 240239Z 24012KT 14/M12 A2986 RMK A01 T01371124  RH  015%=      5-min Rain = 0
KBWS 240240Z 24011KT 14/M12 A2986 RMK A01 T01361124  RH  015%=      5-min Rain = 0
KBWS 240241Z 24011KT 13/M12 A2986 RMK A01 T01341123  RH  015%=      5-min Rain = 0
KBWS 240242Z 24011KT 13/M12 A2986 RMK A01 T01331123  RH  016%=      5-min Rain = 0
KBWS 240243Z 24011KT 13/M12 A2986 RMK A01 T01331123  RH  016%=      5-min Rain = 0
KBWS 240244Z 24011KT 13/M12 A2986 RMK A01 T01331123  RH  016%=      5-min Rain = 0
KBWS 240245Z 24012KT 13/M12 A2986 RMK A01 T01331123  RH  016%=      5-min Rain = 0
KBWS 240246Z 24012KT 13/M12 A2986 RMK A01 T01331123  RH  016%=      5-min Rain = 0
KBWS 240247Z 24011KT 13/M12 A2986 RMK A01 T01321123  RH  016%=      5-min Rain = 0
KBWS 240248Z 24011KT 13/M12 A2986 RMK A01 T01321123  RH  016%=      5-min Rain = 0
KBWS 240249Z 24011KT 13/M12 A2986 RMK A01 T01311123  RH  016%=      5-min Rain = 0
KBWS 240250Z 24012KT 13/M12 A2986 RMK A01 T01311123  RH  016%=      5-min Rain = 0
KBWS 240251Z 24012KT 13/M12 A2986 RMK A01 T01311123  RH  016%=      5-min Rain = 0
KBWS 240252Z 24012KT 13/M12 A2986 RMK A01 T01311123  RH  016%=      5-min Rain = 0
KBWS 240253Z 24011KT 13/M12 A2986 RMK A01 T01311124  RH  016%=      5-min Rain = 0
KBWS 240254Z 24012KT 13/M12 A2986 RMK A01 T01301124  RH  016%=      5-min Rain = 0
KBWS 240255Z 24012KT 13/M12 A2986 RMK A01 T01301124  RH  016%=      5-min Rain = 0
KBWS 240256Z 24012KT 13/M12 A2986 RMK A01 T01301124  RH  016%=      5-min Rain = 0
KBWS 240257Z 24011KT 13/M12 A2986 RMK A01 T01301124  RH  016%=      5-min Rain = 0
KBWS 240258Z 24012KT 13/M12 A2986 RMK A01 T01291124  RH  016%=      5-min Rain = 0
KBWS 240259Z 24011KT 13/M12 A2986 RMK A01 T01281124  RH  016%=      5-min Rain = 0
KBWS 240300Z 24011KT 13/M12 A2986 RMK A01 T01271124  RH  016%=      5-min Rain = 0
KBWS 240301Z 25011KT 13/M12 A2986 RMK A01 T01251123  RH  016%=      5-min Rain = 0
KBWS 240302Z 25011KT 13/M12 A2986 RMK A01 T01251123  RH  016%=      5-min Rain = 0
KBWS 240303Z 25011KT 12/M12 A2986 RMK A01 T01241123  RH  017%=      5-min Rain = 0
KBWS 240304Z 25011KT 12/M12 A2987 RMK A01 T01241124  RH  016%=      5-min Rain = 0
KBWS 240305Z 25011KT 12/M12 A2987 RMK A01 T01241123  RH  017%=      5-min Rain = 0
KBWS 240306Z 25011KT 12/M12 A2987 RMK A01 T01231123  RH  017%=      5-min Rain = 0
KBWS 240307Z 25010KT 12/M12 A2987 RMK A01 T01231124  RH  017%=      5-min Rain = 0
KBWS 240308Z 25010KT 12/M12 A2987 RMK A01 T01231124  RH  017%=      5-min Rain = 0
KBWS 240309Z 25011KT 12/M13 A2987 RMK A01 T01221125  RH  017%=      5-min Rain = 0
KBWS 240310Z 25010KT 12/M13 A2987 RMK A01 T01221126  RH  016%=      5-min Rain = 0
KBWS 240311Z 25011KT 12/M13 A2987 RMK A01 T01221126  RH  016%=      5-min Rain = 0
KBWS 240312Z 25011KT 12/M13 A2987 RMK A01 T01211126  RH  017%=      5-min Rain = 0
KBWS 240313Z 25011KT 12/M13 A2987 RMK A01 T01191127  RH  017%=      5-min Rain = 0
KBWS 240314Z 25011KT 12/M13 A2987 RMK A01 T01181126  RH  017%=      5-min Rain = 0
KBWS 240315Z 25012KT 12/M13 A2987 RMK A01 T01171126  RH  017%=      5-min Rain = 0
KBWS 240316Z 25011KT 12/M13 A2987 RMK A01 T01171126  RH  017%=      5-min Rain = 0
KBWS 240317Z 25011KT 12/M13 A2987 RMK A01 T01171126  RH  017%=      5-min Rain = 0
KBWS 240318Z 25011KT 12/M13 A2987 RMK A01 T01171126  RH  017%=      5-min Rain = 0
KBWS 240319Z 25011KT 12/M13 A2987 RMK A01 T01171125  RH  017%=      5-min Rain = 0
KBWS 240320Z 25011KT 12/M13 A2987 RMK A01 T01171126  RH  017%=      5-min Rain = 0
KBWS 240321Z 25011KT 12/M13 A2987 RMK A01 T01171126  RH  017%=      5-min Rain = 0
KBWS 240322Z 25011KT 12/M13 A2987 RMK A01 T01171126  RH  017%=      5-min Rain = 0
KBWS 240323Z 25011KT 12/M13 A2987 RMK A01 T01171125  RH  017%=      5-min Rain = 0
KBWS 240324Z 25010KT 12/M13 A2987 RMK A01 T01171125  RH  017%=      5-min Rain = 0
KBWS 240325Z 25010KT 12/M13 A2987 RMK A01 T01171126  RH  017%=      5-min Rain = 0
KBWS 240326Z 25010KT 12/M13 A2987 RMK A01 T01171126  RH  017%=      5-min Rain = 0
KBWS 240327Z 25010KT 12/M13 A2987 RMK A01 T01161126  RH  017%=      5-min Rain = 0
KBWS 240328Z 26011KT 12/M13 A2987 RMK A01 T01161126  RH  017%=      5-min Rain = 0
KBWS 240329Z 26010KT 12/M13 A2987 RMK A01 T01161126  RH  017%=      5-min Rain = 0
KBWS 240330Z 26011KT 12/M13 A2987 RMK A01 T01161125  RH  017%=      5-min Rain = 0
KBWS 240331Z 26011KT 12/M13 A2987 RMK A01 T01161125  RH  017%=      5-min Rain = 0
KBWS 240332Z 26010KT 12/M13 A2987 RMK A01 T01171125  RH  017%=      5-min Rain = 0
KBWS 240333Z 26011KT 12/M13 A2987 RMK A01 T01171125  RH  017%=      5-min Rain = 0
KBWS 240334Z 26011KT 12/M13 A2987 RMK A01 T01171126  RH  017%=      5-min Rain = 0
KBWS 240335Z 26010KT 12/M13 A2987 RMK A01 T01181127  RH  017%=      5-min Rain = 0
KBWS 240336Z 26010KT 12/M13 A2988 RMK A01 T01191127  RH  017%=      5-min Rain = 0
KBWS 240337Z 26010KT 12/M13 A2988 RMK A01 T01201128  RH  016%=      5-min Rain = 0
KBWS 240338Z 26010KT 12/M13 A2988 RMK A01 T01201128  RH  016%=      5-min Rain = 0
KBWS 240339Z 26010KT 12/M13 A2988 RMK A01 T01181129  RH  016%=      5-min Rain = 0
KBWS 240340Z 26010KT 12/M13 A2988 RMK A01 T01161129  RH  017%=      5-min Rain = 0
KBWS 240341Z 26010KT 12/M13 A2988 RMK A01 T01151129  RH  017%=      5-min Rain = 0
KBWS 240342Z 26010KT 12/M13 A2988 RMK A01 T01151128  RH  017%=      5-min Rain = 0
KBWS 240343Z 26010KT 12/M13 A2988 RMK A01 T01161128  RH  017%=      5-min Rain = 0
KBWS 240344Z 26010KT 12/M13 A2988 RMK A01 T01151128  RH  017%=      5-min Rain = 0
KBWS 240345Z 25010KT 11/M13 A2988 RMK A01 T01141129  RH  017%=      5-min Rain = 0
KBWS 240346Z 26010KT 11/M13 A2988 RMK A01 T01121129  RH  017%=      5-min Rain = 0
KBWS 240347Z 26010KT 11/M13 A2988 RMK A01 T01111128  RH  017%=      5-min Rain = 0
KBWS 240348Z 26010KT 11/M13 A2988 RMK A01 T01111128  RH  017%=      5-min Rain = 0
KBWS 240349Z 26009KT 11/M13 A2988 RMK A01 T01101128  RH  017%=      5-min Rain = 0
KBWS 240350Z 26009KT 11/M13 A2988 RMK A01 T01091128  RH  018%=      5-min Rain = 0
KBWS 240351Z 27009KT 11/M13 A2988 RMK A01 T01091128  RH  017%=      5-min Rain = 0
KBWS 240352Z 28011KT 11/M13 A2988 RMK A01 T01111128  RH  017%=      5-min Rain = 0
KBWS 240353Z 29010KT 11/M13 A2989 RMK A01 T01091128  RH  018%=      5-min Rain = 0
KBWS 240354Z 27008KT 11/M13 A2988 RMK A01 T01051132  RH  017%=      5-min Rain = 0
KBWS 240355Z 27008KT 10/M13 A2988 RMK A01 T01011134  RH  018%=      5-min Rain = 0
KBWS 240356Z 26009KT 10/M13 A2988 RMK A01 T00991134  RH  018%=      5-min Rain = 0
KBWS 240357Z 26008KT 10/M14 A2988 RMK A01 T00981135  RH  018%=      5-min Rain = 0
KBWS 240358Z 26009KT 10/M14 A2988 RMK A01 T00991135  RH  018%=      5-min Rain = 0
KBWS 240359Z 27009KT 10/M14 A2988 RMK A01 T01011136  RH  017%=      5-min Rain = 0
KBWS 240400Z 29009KT 10/M14 A2989 RMK A01 T01041136  RH  017%=      5-min Rain = 0
KBWS 240401Z 29011KT 10/M13 A2989 RMK A01 T01021134  RH  018%=      5-min Rain = 0
KBWS 240402Z 28009KT 10/M13 A2989 RMK A01 T00981134  RH  018%=      5-min Rain = 0
KBWS 240403Z 28010KT 10/M13 A2989 RMK A01 T00971134  RH  018%=      5-min Rain = 0
KBWS 240404Z 28009KT 10/M13 A2989 RMK A01 T00961133  RH  018%=      5-min Rain = 0
KBWS 240405Z 28009KT 09/M13 A2989 RMK A01 T00941133  RH  019%=      5-min Rain = 0
KBWS 240406Z 28009KT 09/M13 A2989 RMK A01 T00921132  RH  019%=      5-min Rain = 0
KBWS 240407Z 29007KT 09/M13 A2989 RMK A01 T00911131  RH  019%=      5-min Rain = 0
KBWS 240408Z 28008KT 09/M13 A2989 RMK A01 T00891132  RH  020%=      5-min Rain = 0
KBWS 240409Z 28010KT 09/M13 A2989 RMK A01 T00881130  RH  020%=      5-min Rain = 0
KBWS 240410Z 28010KT 09/M13 A2989 RMK A01 T00911129  RH  020%=      5-min Rain = 0
KBWS 240411Z 28010KT 09/M13 A2989 RMK A01 T00931129  RH  019%=      5-min Rain = 0
KBWS 240412Z 27009KT 10/M13 A2989 RMK A01 T00951129  RH  019%=      5-min Rain = 0
KBWS 240413Z 27010KT 10/M13 A2989 RMK A01 T00961129  RH  019%=      5-min Rain = 0
KBWS 240414Z 26011KT 10/M13 A2989 RMK A01 T00991130  RH  019%=      5-min Rain = 0
KBWS 240415Z 26011KT 10/M13 A2989 RMK A01 T01031129  RH  018%=      5-min Rain = 0
KBWS 240416Z 26011KT 10/M13 A2989 RMK A01 T01041130  RH  018%=      5-min Rain = 0
KBWS 240417Z 26012KT 11/M13 A2989 RMK A01 T01051131  RH  018%=      5-min Rain = 0
KBWS 240418Z 26011KT 11/M13 A2989 RMK A01 T01081130  RH  017%=      5-min Rain = 0
KBWS 240419Z 26012KT 11/M13 A2989 RMK A01 T01091130  RH  017%=      5-min Rain = 0
KBWS 240420Z 26012KT 11/M13 A2989 RMK A01 T01091129  RH  017%=      5-min Rain = 0
KBWS 240421Z 26013KT 11/M13 A2989 RMK A01 T01121128  RH  017%=      5-min Rain = 0
KBWS 240422Z 26013G19KT 12/M13 A2989 RMK A01 T01161129  RH  017%=      5-min Rain = 0
KBWS 240423Z 26013KT 12/M13 A2989 RMK A01 T01181129  RH  016%=      5-min Rain = 0
KBWS 240424Z 26012KT 12/M13 A2989 RMK A01 T01191130  RH  016%=      5-min Rain = 0
KBWS 240425Z 26014KT 12/M13 A2989 RMK A01 T01201130  RH  016%=      5-min Rain = 0
KBWS 240426Z 26012KT 12/M13 A2989 RMK A01 T01221130  RH  016%=      5-min Rain = 0
KBWS 240427Z 26013G18KT 12/M13 A2989 RMK A01 T01221130  RH  016%=      5-min Rain = 0
KBWS 240428Z 26012G17KT 12/M13 A2989 RMK A01 T01221130  RH  016%=      5-min Rain = 0
KBWS 240429Z 26013KT 12/M13 A2989 RMK A01 T01211130  RH  016%=      5-min Rain = 0
KBWS 240430Z 26013KT 12/M13 A2989 RMK A01 T01201130  RH  016%=      5-min Rain = 0
KBWS 240431Z 25013KT 12/M13 A2989 RMK A01 T01201130  RH  016%=      5-min Rain = 0
KBWS 240432Z 26013KT 12/M13 A2989 RMK A01 T01211129  RH  016%=      5-min Rain = 0
KBWS 240433Z 25013KT 12/M13 A2989 RMK A01 T01211130  RH  016%=      5-min Rain = 0
KBWS 240434Z 25013KT 12/M13 A2989 RMK A01 T01201130  RH  016%=      5-min Rain = 0
KBWS 240435Z 26012KT 12/M13 A2989 RMK A01 T01161130  RH  016%=      5-min Rain = 0
KBWS 240436Z 26012KT 11/M13 A2989 RMK A01 T01141130  RH  017%=      5-min Rain = 0
KBWS 240437Z 25012KT 11/M13 A2989 RMK A01 T01121129  RH  017%=      5-min Rain = 0
KBWS 240438Z 25012KT 11/M13 A2989 RMK A01 T01111129  RH  017%=      5-min Rain = 0
KBWS 240439Z 26012KT 11/M13 A2989 RMK A01 T01091128  RH  018%=      5-min Rain = 0
KBWS 240440Z 26013KT 11/M13 A2989 RMK A01 T01081128  RH  018%=      5-min Rain = 0
KBWS 240441Z 26012KT 11/M13 A2989 RMK A01 T01091128  RH  018%=      5-min Rain = 0
KBWS 240442Z 26011KT 11/M13 A2989 RMK A01 T01081127  RH  018%=      5-min Rain = 0
KBWS 240443Z 26011KT 11/M13 A2989 RMK A01 T01081127  RH  018%=      5-min Rain = 0
KBWS 240444Z 26010KT 11/M13 A2989 RMK A01 T01071126  RH  018%=      5-min Rain = 0
KBWS 240445Z 26011KT 11/M13 A2989 RMK A01 T01061126  RH  018%=      5-min Rain = 0
KBWS 240446Z 26010KT 11/M13 A2989 RMK A01 T01051126  RH  018%=      5-min Rain = 0
KBWS 240447Z 26010KT 10/M13 A2989 RMK A01 T01041126  RH  018%=      5-min Rain = 0
KBWS 240448Z 26010KT 10/M13 A2989 RMK A01 T01041126  RH  018%=      5-min Rain = 0
KBWS 240449Z 26011KT 11/M13 A299 RMK A01 T01051126  RH  018%=      5-min Rain = 0
KBWS 240450Z 26011KT 11/M13 A299 RMK A01 T01061126  RH  018%=      5-min Rain = 0
KBWS 240451Z 27010KT 11/M13 A299 RMK A01 T01071127  RH  018%=      5-min Rain = 0
KBWS 240452Z 26009KT 11/M13 A299 RMK A01 T01061126  RH  018%=      5-min Rain = 0
KBWS 240453Z 26009KT 10/M13 A299 RMK A01 T01031126  RH  019%=      5-min Rain = 0
KBWS 240454Z 26010KT 10/M13 A299 RMK A01 T01011126  RH  019%=      5-min Rain = 0
KBWS 240455Z 26009KT 10/M13 A299 RMK A01 T00991126  RH  019%=      5-min Rain = 0
KBWS 240456Z 26009KT 10/M13 A299 RMK A01 T00971125  RH  020%=      5-min Rain = 0
KBWS 240457Z 26009KT 10/M13 A299 RMK A01 T00951125  RH  020%=      5-min Rain = 0
KBWS 240458Z 26009KT 10/M13 A299 RMK A01 T00951125  RH  020%=      5-min Rain = 0
KBWS 240459Z 27007KT 10/M13 A299 RMK A01 T00951125  RH  020%=      5-min Rain = 0
KBWS 240500Z 27008KT 09/M12 A299 RMK A01 T00941124  RH  020%=      5-min Rain = 0
KBWS 240501Z 27008KT 09/M12 A299 RMK A01 T00921124  RH  020%=      5-min Rain = 0
KBWS 240502Z 27008KT 09/M12 A299 RMK A01 T00921124  RH  020%=      5-min Rain = 0
KBWS 240503Z 27007KT 09/M12 A299 RMK A01 T00901123  RH  021%=      5-min Rain = 0
KBWS 240504Z 27007KT 09/M12 A299 RMK A01 T00891123  RH  021%=      5-min Rain = 0
KBWS 240505Z 27007KT 09/M12 A299 RMK A01 T00881122  RH  021%=      5-min Rain = 0
KBWS 240506Z 27007KT 09/M12 A299 RMK A01 T00871121  RH  022%=      5-min Rain = 0
KBWS 240507Z 27007KT 08/M12 A299 RMK A01 T00841120  RH  022%=      5-min Rain = 0
KBWS 240508Z 26007KT 08/M12 A299 RMK A01 T00831120  RH  022%=      5-min Rain = 0
KBWS 240509Z 26007KT 08/M12 A2989 RMK A01 T00811121  RH  022%=      5-min Rain = 0
KBWS 240510Z 26007KT 08/M12 A2989 RMK A01 T00811121  RH  022%=      5-min Rain = 0
KBWS 240511Z 26007KT 08/M12 A2989 RMK A01 T00811122  RH  022%=      5-min Rain = 0
KBWS 240512Z 26008KT 08/M12 A2989 RMK A01 T00821122  RH  022%=      5-min Rain = 0
KBWS 240513Z 26008KT 08/M12 A299 RMK A01 T00831123  RH  022%=      5-min Rain = 0
KBWS 240514Z 26008KT 09/M12 A299 RMK A01 T00851123  RH  021%=      5-min Rain = 0
KBWS 240515Z 26008KT 09/M12 A299 RMK A01 T00861124  RH  021%=      5-min Rain = 0
KBWS 240516Z 27008KT 09/M12 A299 RMK A01 T00871124  RH  021%=      5-min Rain = 0
KBWS 240517Z 27008KT 09/M12 A299 RMK A01 T00891124  RH  021%=      5-min Rain = 0
KBWS 240518Z 27007KT 09/M12 A299 RMK A01 T00891124  RH  021%=      5-min Rain = 0
KBWS 240519Z 26007KT 09/M12 A299 RMK A01 T00881124  RH  021%=      5-min Rain = 0
KBWS 240520Z 26007KT 09/M12 A299 RMK A01 T00881124  RH  021%=      5-min Rain = 0
KBWS 240521Z 27007KT 09/M13 A299 RMK A01 T00861125  RH  021%=      5-min Rain = 0
KBWS 240522Z 26007KT 09/M12 A299 RMK A01 T00851124  RH  021%=      5-min Rain = 0
KBWS 240523Z 26007KT 08/M12 A299 RMK A01 T00831124  RH  022%=      5-min Rain = 0
KBWS 240524Z 26007KT 08/M12 A299 RMK A01 T00821124  RH  022%=      5-min Rain = 0
KBWS 240525Z 27007KT 08/M12 A299 RMK A01 T00811124  RH  022%=      5-min Rain = 0
KBWS 240526Z 27007KT 08/M12 A299 RMK A01 T00801123  RH  022%=      5-min Rain = 0
KBWS 240527Z 27007KT 08/M12 A299 RMK A01 T00801123  RH  022%=      5-min Rain = 0
KBWS 240528Z 27007KT 08/M12 A299 RMK A01 T00801123  RH  022%=      5-min Rain = 0
KBWS 240529Z 27007KT 08/M12 A299 RMK A01 T00811123  RH  022%=      5-min Rain = 0
KBWS 240530Z 26007KT 08/M12 A299 RMK A01 T00811123  RH  022%=      5-min Rain = 0
KBWS 240531Z 27007KT 08/M12 A299 RMK A01 T00811123  RH  022%=      5-min Rain = 0
KBWS 240532Z 26008KT 08/M12 A299 RMK A01 T00801123  RH  022%=      5-min Rain = 0
KBWS 240533Z 26008KT 08/M12 A299 RMK A01 T00811123  RH  022%=      5-min Rain = 0
KBWS 240534Z 26007KT 08/M12 A299 RMK A01 T00821123  RH  022%=      5-min Rain = 0
KBWS 240535Z 26007KT 08/M12 A299 RMK A01 T00811123  RH  022%=      5-min Rain = 0
KBWS 240536Z 26007KT 08/M12 A299 RMK A01 T00791124  RH  022%=      5-min Rain = 0
KBWS 240537Z 26008KT 08/M12 A299 RMK A01 T00781124  RH  022%=      5-min Rain = 0
KBWS 240538Z 26007KT 08/M12 A2989 RMK A01 T00761124  RH  023%=      5-min Rain = 0
KBWS 240539Z 26007KT 08/M12 A2989 RMK A01 T00751124  RH  023%=      5-min Rain = 0
KBWS 240540Z 26007KT 07/M12 A2989 RMK A01 T00741123  RH  023%=      5-min Rain = 0
KBWS 240541Z 26007KT 07/M12 A2989 RMK A01 T00741123  RH  023%=      5-min Rain = 0
KBWS 240542Z 26008KT 07/M12 A2989 RMK A01 T00731123  RH  023%=      5-min Rain = 0
KBWS 240543Z 26008KT 07/M12 A2989 RMK A01 T00721123  RH  023%=      5-min Rain = 0
KBWS 240544Z 26009KT 07/M12 A2989 RMK A01 T00701123  RH  024%=      5-min Rain = 0
KBWS 240545Z 26009KT 07/M12 A2989 RMK A01 T00681123  RH  024%=      5-min Rain = 0
KBWS 240546Z 26009KT 07/M12 A2989 RMK A01 T00661123  RH  025%=      5-min Rain = 0
KBWS 240547Z 26009KT 07/M12 A2989 RMK A01 T00651122  RH  025%=      5-min Rain = 0
KBWS 240548Z 26009KT 06/M12 A2989 RMK A01 T00641122  RH  025%=      5-min Rain = 0
KBWS 240549Z 26009KT 06/M12 A299 RMK A01 T00641122  RH  025%=      5-min Rain = 0
KBWS 240550Z 26009KT 07/M12 A2989 RMK A01 T00651122  RH  025%=      5-min Rain = 0
KBWS 240551Z 26009KT 07/M12 A2989 RMK A01 T00671122  RH  024%=      5-min Rain = 0
KBWS 240552Z 26009KT 07/M12 A2989 RMK A01 T00701122  RH  024%=      5-min Rain = 0
KBWS 240553Z 26009KT 07/M12 A2989 RMK A01 T00731123  RH  023%=      5-min Rain = 0
KBWS 240554Z 26009KT 08/M12 A2989 RMK A01 T00761123  RH  023%=      5-min Rain = 0
KBWS 240555Z 26009KT 08/M12 A2989 RMK A01 T00771123  RH  023%=      5-min Rain = 0
KBWS 240556Z 26009KT 08/M12 A2989 RMK A01 T00781123  RH  023%=      5-min Rain = 0
KBWS 240557Z 26009KT 08/M12 A2989 RMK A01 T00781123  RH  023%=      5-min Rain = 0
KBWS 240558Z 26009KT 08/M12 A2989 RMK A01 T00781123  RH  022%=      5-min Rain = 0
KBWS 240559Z 26008KT 08/M12 A2989 RMK A01 T00791123  RH  022%=      5-min Rain = 0

Page generated in 0.1199 seconds.